Return to Metar
SPECI CYNL 071631Z AUTO 05006KT 4SM VV010 M10/M14 A2947 RMK AO1 SLP028
SPECI CYNL 071625Z AUTO 04007KT 3SM VV008 M10/M14 A2947 RMK AO1 SLP027
SPECI CYNL 071614Z AUTO 05008KT 2SM VV008 M10/M14 A2947 RMK AO1 SLP028
SPECI CYNL 071613Z AUTO 05007KT 1 3/4SM VV008 M10/M14 A2947 RMK AO1 SLP028
SPECI CYNL 071611Z AUTO 05007KT 2SM VV008 M10/M14 A2947 RMK AO1 SLP029
SPECI CYNL 071604Z AUTO 05007KT 1 3/4SM VV009 M10/M14 A2948 RMK AO1 SLP030
SPECI CYNL 071603Z AUTO 05008KT 2SM VV009 M10/M14 A2948 RMK AO1 SLP030
METAR CYNL 071600Z AUTO 05006KT 1 3/4SM VV009 M10/M14 A2948 RMK AO1 SLP031
SPECI CYNL 071558Z AUTO 06007KT 2SM VV009 M10/M14 A2948 RMK AO1 SLP031
SPECI CYNL 071554Z AUTO 06007KT 2SM VV010 M10/M14 A2948 RMK AO1 PRESFR SLP032
SPECI CYNL 071553Z AUTO 05007KT 1 3/4SM VV010 M10/M14 A2948 RMK AO1 PRESFR SLP032
SPECI CYNL 071541Z AUTO 07008KT 2SM VV012 M11/M14 A2948 RMK AO1 PRESFR SLP031
SPECI CYNL 071538Z AUTO 06007KT 1SM VV012 M11/M14 A2948 RMK AO1 PRESFR SLP031
SPECI CYNL 071534Z AUTO 05008KT 1 3/4SM VV012 M11/M14 A2948 RMK AO1 PRESFR SLP032
SPECI CYNL 071520Z AUTO 06009KT 2SM VV014 M11/M14 A2949 RMK AO1 PRESFR SLP034
SPECI CYNL 071519Z AUTO 06009KT 1 3/4SM VV014 M11/M14 A2949 RMK AO1 PRESFR SLP034
SPECI CYNL 071517Z AUTO 06009KT 2SM VV013 M11/M14 A2949 RMK AO1 PRESFR SLP034
SPECI CYNL 071514Z AUTO 06007KT 1 1/2SM VV010 M11/M14 A2949 RMK AO1 PRESFR SLP033
SPECI CYNL 071513Z AUTO 05007KT 1 1/2SM VV009 M11/M14 A2949 RMK AO1 PRESFR SLP033
SPECI CYNL 071503Z AUTO 05008KT 1SM VV007 M11/M14 A2949 RMK AO1 PRESFR SLP033
METAR CYNL 071500Z AUTO 06008KT 3/4SM VV008 M11/M14 A2949 RMK AO1 PRESFR SLP033
SPECI CYNL 071451Z AUTO 06007KT 1SM VV007 M11/M14 A2949 RMK AO1 SLP033
SPECI CYNL 071445Z AUTO 06009KT 3/4SM VV006 M11/M14 A2949 RMK AO1 SLP034
METAR CYNL 071400Z AUTO ///// 3/8SM VV005 M11/M14 A2950 RMK AO1 SLP039
SPECI CYNL 071346Z AUTO 05008KT 5/8SM VV008 M11/M14 A2950 RMK AO1 SLP039
SPECI CYNL 071343Z AUTO ///// 5/8SM VV012 M11/M14 A2951 RMK AO1 SLP040
SPECI CYNL 071342Z AUTO 05009KT 3/4SM VV014 M11/M14 A2951 RMK AO1 SLP040
SPECI CYNL 071340Z AUTO 05008KT 1 1/4SM VV016 M11/M14 A2951 RMK AO1 SLP040
SPECI CYNL 071338Z AUTO 05007KT 2 1/2SM VV019 M11/M14 A2951 RMK AO1 SLP040
SPECI CYNL 071333Z AUTO 05008KT 3SM VV019 M11/M14 A2951 RMK AO1 SLP040
SPECI CYNL 071332Z AUTO 05007KT 2 1/2SM VV018 M11/M14 A2951 RMK AO1 SLP040
SPECI CYNL 071330Z AUTO 05007KT 1 1/2SM VV015 M11/M14 A2951 RMK AO1 SLP040
SPECI CYNL 071329Z AUTO 05007KT 1 1/2SM VV014 M11/M14 A2951 RMK AO1 SLP040
SPECI CYNL 071323Z AUTO 05009KT 1 1/4SM VV014 M11/M14 A2951 RMK AO1 SLP041
SPECI CYNL 071321Z AUTO 05009KT 1 1/2SM VV013 M11/M14 A2951 RMK AO1 SLP041
SPECI CYNL 071313Z AUTO ///// 1 1/4SM VV012 M11/M14 A2952 RMK AO1 SLP043
SPECI CYNL 071308Z AUTO ///// 1 1/2SM VV011 M11/M13 A2951 RMK AO1 SLP042
METAR CYNL 071300Z AUTO 06007KT 1 1/4SM FEW003 BKN014 OVC018 M10/M13 A2952 RMK AO1 SLP042
SPECI CYNL 071257Z AUTO ///// 1 1/2SM FEW003 OVC015 M10/M13 A2952 RMK AO1 SLP041
SPECI CYNL 071255Z AUTO 05011KT 1 1/4SM FEW003 SCT013 OVC017 M10/M13 A2952 RMK AO1 SLP041
SPECI CYNL 071251Z AUTO 05007KT 1 3/4SM VV015 M10/M13 A2952 RMK AO1 SLP041
SPECI CYNL 071250Z AUTO 06007KT 2SM VV015 M10/M13 A2952 RMK AO1 SLP041
SPECI CYNL 071249Z AUTO 06007KT 2SM VV014 M10/M13 A2952 RMK AO1 SLP042
SPECI CYNL 071248Z AUTO 07007KT 1 3/4SM VV015 M10/M13 A2952 RMK AO1 SLP042
SPECI CYNL 071247Z AUTO 06007KT 1 1/2SM VV014 M10/M13 A2952 RMK AO1 SLP042
SPECI CYNL 071241Z AUTO 06007KT 1 1/4SM VV013 M10/M13 A2952 RMK AO1 SLP043
SPECI CYNL 071240Z AUTO 06007KT 1 1/2SM VV014 M10/M13 A2952 RMK AO1 SLP043
SPECI CYNL 071234Z AUTO 06008KT 1 3/4SM VV018 M10/M13 A2952 RMK AO1 SLP044
SPECI CYNL 071232Z AUTO 06007KT 2SM VV018 M10/M13 A2953 RMK AO1 SLP044
SPECI CYNL 071221Z AUTO 07007KT 1 3/4SM VV019 M10/M13 A2953 RMK AO1 SLP047
SPECI CYNL 071214Z AUTO 07008KT 2SM VV019 M10/M13 A2953 RMK AO1 SLP047
METAR CYNL 071200Z AUTO 07008KT 1 3/4SM VV017 M10/M12 A2953 RMK AO1 SLP045
SPECI CYNL 071154Z AUTO 06007KT 1 3/4SM VV018 M10/M12 A2953 RMK AO1 SLP045
SPECI CYNL 071135Z AUTO 06008KT 2SM VV017 M10/M12 A2953 RMK AO1 SLP046
SPECI CYNL 071131Z AUTO 06007KT 1 1/2SM VV016 M10/M12 A2953 RMK AO1 SLP046
SPECI CYNL 071129Z AUTO 06008KT 1 1/4SM VV016 M10/M12 A2953 RMK AO1 SLP046
SPECI CYNL 071126Z AUTO 06007KT 1 1/2SM VV015 M10/M12 A2953 RMK AO1 SLP046
SPECI CYNL 071123Z AUTO 06007KT 1 1/2SM VV013 M10/M12 A2953 RMK AO1 SLP046
SPECI CYNL 071120Z AUTO 06007KT 1SM VV010 M10/M12 A2953 RMK AO1 SLP046
SPECI CYNL 071119Z AUTO 06007KT 3/4SM VV010 M10/M12 A2954 RMK AO1 SLP047
SPECI CYNL 071115Z AUTO 06008KT 5/8SM VV010 M10/M12 A2954 RMK AO1 SLP047
SPECI CYNL 071112Z AUTO 07007KT 3/4SM VV011 M10/M12 A2954 RMK AO1 SLP047
SPECI CYNL 071107Z AUTO 06006KT 1 1/4SM VV014 M10/M12 A2954 RMK AO1 SLP047
SPECI CYNL 071101Z AUTO 06008KT 1 1/2SM VV012 M10/M12 A2954 RMK AO1 SLP048
METAR CYNL 071100Z AUTO 07007KT 1 1/4SM VV011 M10/M12 A2954 RMK AO1 SLP048
SPECI CYNL 071058Z AUTO 06008KT 1SM VV010 M10/M12 A2954 RMK AO1 SLP048
SPECI CYNL 071054Z AUTO 07009KT 3/4SM VV011 M10/M12 A2954 RMK AO1 PRESFR SLP049
SPECI CYNL 071044Z AUTO 06007KT 1SM VV014 M10/M12 A2955 RMK AO1 PRESFR SLP050
SPECI CYNL 071042Z AUTO 07008KT 1 1/4SM VV016 M10/M12 A2955 RMK AO1 PRESFR SLP050
SPECI CYNL 071039Z AUTO 06008KT 1 3/4SM VV019 M10/M12 A2955 RMK AO1 PRESFR SLP050
SPECI CYNL 071035Z AUTO 07009KT 2 1/2SM VV023 M10/M12 A2955 RMK AO1 PRESFR SLP050
SPECI CYNL 071031Z AUTO 07009KT 3SM VV020 M10/M12 A2955 RMK AO1 PRESFR SLP050
SPECI CYNL 071029Z AUTO 07007KT 2SM VV017 M10/M12 A2955 RMK AO1 PRESFR SLP050
SPECI CYNL 071026Z AUTO 06007KT 1 3/4SM VV015 M10/M12 A2955 RMK AO1 PRESFR SLP050
SPECI CYNL 071021Z AUTO 06006KT 1 3/4SM VV014 M10/M12 A2955 RMK AO1 PRESFR SLP050
SPECI CYNL 071020Z AUTO 07007KT 1 3/4SM VV015 M10/M12 A2955 RMK AO1 PRESFR SLP050
SPECI CYNL 071015Z AUTO 07009KT 2SM VV015 M10/M12 A2955 RMK AO1 PRESFR SLP051
SPECI CYNL 071008Z AUTO 07007KT 1 3/4SM VV018 M10/M12 A2955 RMK AO1 PRESFR SLP052
SPECI CYNL 071006Z AUTO 06008KT 2 1/2SM VV016 M10/M12 A2955 RMK AO1 PRESFR SLP052
SPECI CYNL 071005Z AUTO 07008KT 3SM VV015 M10/M12 A2955 RMK AO1 PRESFR SLP052
SPECI CYNL 071001Z AUTO 06007KT 4SM VV010 M10/M12 A2955 RMK AO1 PRESFR SLP051
METAR CYNL 071000Z AUTO 05007KT 4SM VV009 M10/M12 A2955 RMK AO1 PRESFR SLP051
SPECI CYNL 070959Z AUTO 05007KT 4SM VV009 M10/M12 A2955 RMK AO1 PRESFR SLP051
SPECI CYNL 070953Z AUTO 06007KT 7SM VV014 M10/M12 A2955 RMK AO1 PRESFR SLP051
SPECI CYNL 070938Z AUTO 06008KT 3SM VV015 M10/M12 A2956 RMK AO1 PRESFR SLP053
SPECI CYNL 070931Z AUTO 05007KT 2 1/2SM VV015 M10/M12 A2956 RMK AO1 PRESFR SLP054
SPECI CYNL 070927Z AUTO 06008KT 2SM VV014 M09/M12 A2956 RMK AO1 PRESFR SLP055
SPECI CYNL 070926Z AUTO 06007KT 1 3/4SM VV014 M09/M12 A2957 RMK AO1 PRESFR SLP056
SPECI CYNL 070924Z AUTO 06008KT 1 3/4SM VV015 M09/M12 A2957 RMK AO1 PRESFR SLP056
SPECI CYNL 070919Z AUTO 07007KT 2 1/2SM VV018 M09/M12 A2957 RMK AO1 PRESFR SLP057
SPECI CYNL 070915Z AUTO 07006KT 3SM VV016 M09/M12 A2957 RMK AO1 PRESFR SLP058
SPECI CYNL 070913Z AUTO 07006KT 2 1/2SM VV015 M09/M12 A2957 RMK AO1 PRESFR SLP058
SPECI CYNL 070912Z AUTO 07007KT 2SM VV014 M09/M12 A2957 RMK AO1 PRESFR SLP058
SPECI CYNL 070906Z AUTO 07008KT 1 1/2SM VV012 M09/M12 A2957 RMK AO1 PRESFR SLP058
METAR CYNL 070900Z AUTO 07007KT 1 1/4SM VV011 M09/M12 A2958 RMK AO1 PRESFR SLP059
SPECI CYNL 070816Z AUTO 07008KT 1 1/4SM VV012 M09/M12 A2959 RMK AO1 PRESFR SLP063
SPECI CYNL 070813Z AUTO 08008KT 1 3/4SM VV012 M09/M12 A2959 RMK AO1 PRESFR SLP063
SPECI CYNL 070811Z AUTO 08008KT 2 1/2SM VV013 M09/M12 A2959 RMK AO1 PRESFR SLP063
SPECI CYNL 070810Z AUTO 08007KT 3SM VV013 M09/M12 A2959 RMK AO1 PRESFR SLP064
METAR CYNL 070800Z AUTO 08008KT 8SM SCT006 M09/M12 A2960 RMK AO1 PRESFR SLP067
SPECI CYNL 070757Z AUTO 08008KT 6SM SCT006 BKN015 M09/M12 A2960 RMK AO1 PRESFR SLP068
SPECI CYNL 070756Z AUTO 08008KT 6SM SCT006 BKN011 M09/M12 A2960 RMK AO1 PRESFR SLP068
SPECI CYNL 070755Z AUTO 08007KT 5SM SCT006 BKN015 M09/M12 A2960 RMK AO1 PRESFR SLP068
SPECI CYNL 070752Z AUTO 08007KT 4SM SCT006 BKN014 BKN026 M09/M12 A2960 RMK AO1 PRESFR SLP068
SPECI CYNL 070750Z AUTO 07008KT 3SM VV006 M09/M12 A2960 RMK AO1 PRESFR SLP069
SPECI CYNL 070740Z AUTO 07008KT 2 1/2SM VV009 M09/M12 A2961 RMK AO1 PRESFR SLP071
SPECI CYNL 070739Z AUTO 07009KT 2 1/2SM VV010 M09/M12 A2961 RMK AO1 PRESFR SLP071
SPECI CYNL 070737Z AUTO 07008KT 3SM VV012 M09/M12 A2961 RMK AO1 PRESFR SLP071
SPECI CYNL 070736Z AUTO 07009KT 2 1/2SM VV014 M09/M12 A2961 RMK AO1 PRESFR SLP071
SPECI CYNL 070735Z AUTO 07009KT 2 1/2SM VV016 M09/M12 A2961 RMK AO1 PRESFR SLP071
SPECI CYNL 070730Z AUTO 08009KT 5SM VV024 M09/M12 A2961 RMK AO1 PRESFR SLP072
SPECI CYNL 070721Z AUTO 08007KT 5SM VV025 M09/M12 A2962 RMK AO1 PRESFR SLP074
SPECI CYNL 070716Z AUTO 08008KT 4SM VV016 M09/M12 A2962 RMK AO1 PRESFR SLP075
SPECI CYNL 070704Z AUTO 07008KT 7SM SCT008 BKN013 M09/M12 A2963 RMK AO1 PRESFR SLP077
METAR CYNL 070700Z AUTO 08008KT 5SM BKN007 M09/M12 A2963 RMK AO1 PRESFR SLP078
SPECI CYNL 070654Z AUTO 08008KT 3SM VV007 M09/M12 A2963 RMK AO1 PRESFR SLP079
SPECI CYNL 070637Z AUTO 08008KT 2 1/2SM VV008 M09/M12 A2964 RMK AO1 PRESFR SLP082
SPECI CYNL 070632Z AUTO 08007KT 3SM VV009 M09/M12 A2964 RMK AO1 PRESFR SLP082
SPECI CYNL 070624Z AUTO 08009KT 3SM VV011 M09/M12 A2964 RMK AO1 PRESFR SLP083
SPECI CYNL 070615Z AUTO 08007KT 2SM VV010 M09/M11 A2965 RMK AO1 PRESFR SLP085
SPECI CYNL 070614Z AUTO 08007KT 2SM VV009 M09/M12 A2965 RMK AO1 PRESFR SLP085
SPECI CYNL 070611Z AUTO 08009KT 2SM VV010 M09/M12 A2965 RMK AO1 PRESFR SLP085
SPECI CYNL 070607Z AUTO 08008KT 1 3/4SM VV012 M09/M12 A2965 RMK AO1 PRESFR SLP086
METAR CYNL 070600Z AUTO 08008KT 2SM VV013 M09/M11 A2965 RMK AO1 PRESFR SLP087
SPECI CYNL 070556Z AUTO 08008KT 2SM VV014 M09/M11 A2966 RMK AO1 PRESFR SLP087
SPECI CYNL 070555Z AUTO 08009KT 1 3/4SM VV014 M09/M11 A2966 RMK AO1 PRESFR SLP087
SPECI CYNL 070552Z AUTO 08008KT 1 3/4SM VV015 M09/M11 A2966 RMK AO1 PRESFR SLP087
SPECI CYNL 070551Z AUTO 08009KT 2SM VV015 M09/M11 A2966 RMK AO1 PRESFR SLP087
SPECI CYNL 070550Z AUTO 08009KT 2SM VV014 M09/M11 A2966 RMK AO1 PRESFR SLP088
SPECI CYNL 070549Z AUTO 08009KT 2SM VV015 M09/M11 A2966 RMK AO1 PRESFR SLP088
SPECI CYNL 070545Z AUTO 08008KT 1 3/4SM VV015 M09/M11 A2966 RMK AO1 PRESFR SLP089
SPECI CYNL 070540Z AUTO 09009KT 2SM VV015 M09/M12 A2966 RMK AO1 PRESFR SLP090
SPECI CYNL 070536Z AUTO 08007KT 2SM VV013 M09/M11 A2967 RMK AO1 PRESFR SLP091
SPECI CYNL 070528Z AUTO 08009KT 1 3/4SM VV010 M09/M11 A2967 RMK AO1 PRESFR SLP091
SPECI CYNL 070524Z AUTO 08008KT 2SM VV010 M09/M11 A2967 RMK AO1 PRESFR SLP092
SPECI CYNL 070521Z AUTO 09009KT 1 1/2SM VV009 M09/M11 A2967 RMK AO1 PRESFR SLP094
SPECI CYNL 070512Z AUTO 09008KT 1 1/2SM VV010 M09/M11 A2968 RMK AO1 PRESFR SLP095
SPECI CYNL 070510Z AUTO 09007KT 1 3/4SM VV009 M09/M11 A2968 RMK AO1 PRESFR SLP096
SPECI CYNL 070504Z AUTO 08007KT 2 1/2SM VV007 M09/M11 A2968 RMK AO1 PRESFR SLP097
SPECI CYNL 070501Z AUTO 10008KT 3SM VV008 M09/M11 A2969 RMK AO1 PRESFR SLP097
METAR CYNL 070500Z AUTO 09008KT 2 1/2SM VV008 M09/M11 A2969 RMK AO1 PRESFR SLP097
SPECI CYNL 070457Z AUTO 10009KT 2SM VV008 M09/M11 A2969 RMK AO1 SLP099
SPECI CYNL 070451Z AUTO 10010KT 1 3/4SM VV009 M09/M11 A2969 RMK AO1 SLP099
SPECI CYNL 070445Z AUTO 09010KT 2SM VV009 M09/M11 A2969 RMK AO1 SLP100
SPECI CYNL 070443Z AUTO 09012KT 2SM VV010 M09/M11 A2969 RMK AO1 SLP100
SPECI CYNL 070435Z AUTO 10009KT 1 1/2SM VV008 M09/M11 A2970 RMK AO1 SLP102
SPECI CYNL 070419Z AUTO 09009KT 1 1/4SM VV009 M09/M11 A2970 RMK AO1 SLP103
SPECI CYNL 070418Z AUTO 09010KT 1 1/4SM VV010 M09/M11 A2970 RMK AO1 SLP103
SPECI CYNL 070401Z AUTO 09007KT 1 1/2SM VV010 M09/M11 A2971 RMK AO1 SLP106
METAR CYNL 070400Z AUTO 09006KT 1 1/4SM VV010 M09/M11 A2971 RMK AO1 SLP107
SPECI CYNL 070354Z AUTO 08009KT 1 1/4SM VV010 M09/M11 A2971 RMK AO1 SLP108
SPECI CYNL 070349Z AUTO 10008KT 1SM VV008 M09/M11 A2971 RMK AO1 SLP109
SPECI CYNL 070346Z AUTO 09009KT 3/4SM VV009 M09/M11 A2971 RMK AO1 SLP108
SPECI CYNL 070345Z AUTO 09010KT 1SM VV009 M08/M11 A2971 RMK AO1 SLP108
SPECI CYNL 070341Z AUTO 09009KT 1 1/4SM VV010 M09/M11 A2972 RMK AO1 SLP109
SPECI CYNL 070339Z AUTO 09008KT 1 1/2SM VV010 M08/M11 A2972 RMK AO1 SLP110
SPECI CYNL 070332Z AUTO 09008KT 1SM VV008 M08/M11 A2972 RMK AO1 SLP111
SPECI CYNL 070329Z AUTO 08007KT 3/4SM VV009 M08/M11 A2972 RMK AO1 SLP111
SPECI CYNL 070327Z AUTO 08008KT 1SM VV009 M08/M11 A2972 RMK AO1 SLP112
SPECI CYNL 070324Z AUTO 09008KT 1SM VV010 M08/M11 A2973 RMK AO1 SLP112
SPECI CYNL 070322Z AUTO 09008KT 1SM VV009 M08/M11 A2973 RMK AO1 SLP112
SPECI CYNL 070309Z AUTO 09007KT 3/4SM VV008 M08/M11 A2973 RMK AO1 SLP113
METAR CYNL 070300Z AUTO 09007KT 1SM VV008 M08/M11 A2973 RMK AO1 SLP115
SPECI CYNL 070255Z AUTO 09008G15KT 1SM VV008 M08/M11 A2973 RMK AO1 SLP118
SPECI CYNL 070253Z AUTO 09009G15KT 3/4SM VV009 M08/M11 A2973 RMK AO1 SLP118
SPECI CYNL 070247Z AUTO 09009G15KT 1 1/4SM VV012 M08/M11 A2973 RMK AO1 SLP118
SPECI CYNL 070243Z AUTO 09008KT 1 3/4SM VV014 M08/M11 A2974 RMK AO1 SLP119
SPECI CYNL 070239Z AUTO 09007KT 1 3/4SM VV017 M08/M11 A2974 RMK AO1 SLP120
SPECI CYNL 070232Z AUTO 09007KT 2 1/2SM VV018 M08/M11 A2974 RMK AO1 SLP120
SPECI CYNL 070228Z AUTO 09008KT 3SM VV018 M08/M11 A2974 RMK AO1 SLP120
SPECI CYNL 070214Z AUTO 10008KT 2 1/2SM VV019 M08/M11 A2974 RMK AO1 SLP121
METAR CYNL 070200Z AUTO 09008KT 3SM VV017 M08/M11 A2975 RMK AO1 SLP122
SPECI CYNL 070159Z AUTO 09008KT 3SM VV017 M08/M11 A2975 RMK AO1 SLP125
SPECI CYNL 070157Z AUTO 09008KT 2 1/2SM VV016 M08/M11 A2975 RMK AO1 SLP127
SPECI CYNL 070153Z AUTO 10008G15KT 3SM VV015 M08/M12 A2975 RMK AO1 SLP127
SPECI CYNL 070152Z AUTO 10009G15KT 2 1/2SM VV013 M08/M12 A2975 RMK AO1 SLP127
SPECI CYNL 070145Z AUTO 10009KT 4SM VV012 M08/M12 A2975 RMK AO1 SLP127
SPECI CYNL 070140Z AUTO 09010KT 6SM FEW008 SCT011 BKN016 M08/M12 A2975 RMK AO1 SLP128
SPECI CYNL 070136Z AUTO 09008KT 4SM VV014 M08/M12 A2975 RMK AO1 SLP128
SPECI CYNL 070133Z AUTO 10010KT 4SM VV015 M08/M12 A2975 RMK AO1 SLP129
SPECI CYNL 070129Z AUTO 10010G19KT 3SM VV012 M08/M12 A2975 RMK AO1 SLP129
SPECI CYNL 070124Z AUTO 10012G19KT 2SM VV010 M08/M12 A2976 RMK AO1 SLP129
SPECI CYNL 070123Z AUTO 10013G19KT 1 3/4SM VV011 M08/M12 A2976 RMK AO1 SLP129
SPECI CYNL 070119Z AUTO 10014KT 2SM VV014 M07/M12 A2976 RMK AO1 SLP130
METAR CYNL 070100Z AUTO 09010G16KT 5SM VV015 M07/M13 A2976 RMK AO1 SLP131
SPECI CYNL 070059Z AUTO 10011G16KT 5SM VV014 M07/M13 A2976 RMK AO1 SLP133
SPECI CYNL 070058Z AUTO 11011KT 4SM VV015 M07/M13 A2976 RMK AO1 SLP134
SPECI CYNL 070056Z AUTO 10009KT 4SM VV014 M07/M13 A2976 RMK AO1 PRESFR SLP134
METAR CYNL 070000Z AUTO 10012G17KT 9SM CLR M07/M13 A2977 RMK AO1 PRESFR SLP138
METAR CYNL 062300Z AUTO 10012G20KT 9SM BKN056 M06/M14 A2980 RMK AO1 PRESFR SLP147
METAR CYNL 062200Z AUTO 09014G19KT 9SM CLR M06/M14 A2982 RMK AO1 PRESFR SLP154
METAR CYNL 062100Z AUTO 09011G16KT 9SM CLR M06/M13 A2987 RMK AO1 PRESFR SLP169
METAR CYNL 062000Z AUTO 10011G17KT 9SM FEW170 M06/M13 A2990 RMK AO1 PRESFR SLP180
METAR CYNL 061900Z AUTO 09012KT 9SM FEW160 M07/M13 A2992 RMK AO1 PRESFR SLP189
SPECI CYNL 061819Z AUTO 08010KT 9SM FEW180 M07/M14 A2995 RMK AO1 WSHFT (18)19 PRESFR SLP197
METAR CYNL 061800Z AUTO 12010KT 9SM CLR M07/M14 A2996 RMK AO1 PRESFR SLP200
METAR CYNL 061700Z AUTO 11013KT 9SM FEW180 M08/M14 A2999 RMK AO1 PRESFR SLP212
METAR CYNL 061600Z AUTO 14012KT 9SM CLR M09/M14 A3002 RMK AO1 PRESFR SLP220
METAR CYNL 061500Z AUTO 11009KT 9SM CLR M11/M16 A3005 RMK AO1 SLP233
METAR CYNL 061400Z AUTO 09006KT 9SM CLR M15/M18 A3006 RMK AO1 SLP237
METAR CYNL 061300Z AUTO 07005KT 9SM CLR M17/M20 A3007 RMK AO1 SLP243
METAR CYNL 061200Z AUTO 06003KT 9SM CLR M18/M21 A3008 RMK AO1 SLP244
METAR CYNL 061100Z AUTO 05003KT 9SM CLR M18/M20 A3009 RMK AO1 SLP245
METAR CYNL 061000Z AUTO 04003KT 9SM CLR M18/M21 A3011 RMK AO1 SLP249
METAR CYNL 060900Z AUTO 04004KT 9SM CLR M17/M21 A3013 RMK AO1 SLP254
METAR CYNL 060800Z AUTO 04003KT 9SM CLR M17/M20 A3013 RMK AO1 SLP253
METAR CYNL 060700Z AUTO 04003KT 9SM CLR M16/M20 A3014 RMK AO1 SLP254
METAR CYNL 060600Z AUTO 06002KT 9SM CLR M17/M20 A3013 RMK AO1 SLP257
METAR CYNL 060500Z AUTO 07002KT 9SM CLR M14/M19 A3013 RMK AO1 SLP253
METAR CYNL 060400Z AUTO 07004KT 9SM CLR M13/M18 A3012 RMK AO1 SLP249
METAR CYNL 060300Z AUTO 09006KT 9SM CLR M11/M18 A3011 RMK AO1 SLP244
METAR CYNL 060200Z AUTO 08007KT 9SM CLR M09/M17 A3011 RMK AO1 SLP248
METAR CYNL 060100Z AUTO 09008KT 9SM CLR M06/M16 A3010 RMK AO1 SLP250
METAR CYNL 060000Z AUTO 07010KT 9SM CLR M05/M15 A3009 RMK AO1 SLP255
METAR CYNL 052300Z AUTO 09010KT 9SM CLR M03/M15 A3009 RMK AO1 SLP257
METAR CYNL 052200Z AUTO 09010KT 9SM FEW058 M03/M14 A3009 RMK AO1 SLP254
METAR CYNL 052100Z AUTO 04003KT 9SM CLR M01/M15 A3009 RMK AO1 SLP251
METAR CYNL 052000Z AUTO 15003KT 9SM FEW054 M01/M16 A3009 RMK AO1 SLP252
METAR CYNL 051900Z AUTO 20004KT 9SM CLR M03/M15 A3009 RMK AO1 SLP254
METAR CYNL 051800Z AUTO 17004KT 9SM CLR M03/M15 A3009 RMK AO1 SLP252
METAR CYNL 051700Z AUTO 17003KT 9SM CLR M05/M17 A3009 RMK AO1 SLP250
METAR CYNL 051600Z AUTO 00000KT 9SM CLR M04/M16 A3009 RMK AO1 SLP248
METAR CYNL 051500Z AUTO 00000KT 9SM CLR M12/M20 A3009 RMK AO1 SLP252
METAR CYNL 051400Z AUTO 24002KT 9SM CLR M18/M22 A3009 RMK AO1 SLP259
METAR CYNL 051300Z AUTO ///// 9SM CLR M25/M29 A3008 RMK AO1 SLP259
METAR CYNL 051200Z AUTO ///// 9SM CLR M29/M33 A3007 RMK AO1 SLP257
METAR CYNL 051100Z AUTO 22004KT 9SM CLR M28/M32 A3008 RMK AO1 SLP255
METAR CYNL 051000Z AUTO 33002KT 9SM CLR M27/M31 A3008 RMK AO1 SLP255
METAR CYNL 050900Z AUTO 24003KT 9SM CLR M27/M31 A3008 RMK AO1 SLP253
METAR CYNL 050800Z AUTO 25003KT 9SM CLR M27/M30 A3007 RMK AO1 SLP250
METAR CYNL 050700Z AUTO 26003KT 9SM CLR M25/M28 A3007 RMK AO1 SLP247
METAR CYNL 050600Z AUTO 30003KT 9SM CLR M23/M26 A3007 RMK AO1 SLP246
METAR CYNL 050500Z AUTO 35006KT 290V050 9SM CLR M22/M25 A3007 RMK AO1 SLP248
METAR CYNL 050400Z AUTO 29002KT 9SM CLR M18/M22 A3008 RMK AO1 SLP247
METAR CYNL 050300Z AUTO 31004KT 9SM CLR M16/M20 A3008 RMK AO1 SLP247
METAR CYNL 050200Z AUTO 30004KT 9SM CLR M11/M18 A3008 RMK AO1 SLP242
METAR CYNL 050100Z AUTO 30006KT 9SM CLR M08/M17 A3009 RMK AO1 SLP245
METAR CYNL 050000Z AUTO 31007KT 9SM CLR M06/M16 A3009 RMK AO1 SLP247
METAR CYNL 042300Z AUTO 29009G17KT 9SM CLR M06/M16 A3009 RMK AO1 SLP247
METAR CYNL 042200Z AUTO 32007G17KT 9SM CLR M05/M16 A3009 RMK AO1 SLP246
METAR CYNL 042100Z AUTO 31008G16KT 9SM CLR M06/M17 A3010 RMK AO1 SLP248
METAR CYNL 042000Z AUTO 31009KT 9SM CLR M06/M17 A3011 RMK AO1 SLP250
METAR CYNL 041900Z AUTO 30009G16KT 9SM CLR M07/M18 A3011 RMK AO1 SLP252
METAR CYNL 041800Z AUTO 32006KT 9SM CLR M08/M18 A3011 RMK AO1 SLP254
METAR CYNL 041700Z AUTO 29008KT 9SM CLR M10/M19 A3011 RMK AO1 SLP257
METAR CYNL 041600Z AUTO 30008KT 9SM CLR M11/M19 A3012 RMK AO1 SLP261
METAR CYNL 041500Z AUTO 31007KT 9SM CLR M12/M21 A3012 RMK AO1 SLP261
METAR CYNL 041400Z AUTO 29005KT 9SM CLR M16/M23 A3013 RMK AO1 SLP269
METAR CYNL 041300Z AUTO 30005KT 9SM CLR M20/M24 A3011 RMK AO1 SLP266
METAR CYNL 041200Z AUTO 28005KT 9SM CLR M19/M24 A3011 RMK AO1 SLP265
METAR CYNL 041100Z AUTO 29004KT 9SM CLR M17/M23 A3010 RMK AO1 SLP259
METAR CYNL 041000Z AUTO 30004KT 9SM CLR M17/M22 A3011 RMK AO1 SLP260
METAR CYNL 040900Z AUTO 31006KT 9SM CLR M16/M22 A3010 RMK AO1 SLP256
METAR CYNL 040800Z AUTO 31005KT 9SM CLR M16/M22 A3011 RMK AO1 SLP257
METAR CYNL 040700Z AUTO 29004KT 9SM CLR M17/M22 A3011 RMK AO1 SLP261
METAR CYNL 040600Z AUTO 30003KT 9SM CLR M17/M22 A3014 RMK AO1 SLP270
METAR CYNL 040500Z AUTO 30004KT 9SM CLR M16/M22 A3014 RMK AO1 SLP273
METAR CYNL 040400Z AUTO 31003KT 9SM CLR M16/M22 A3015 RMK AO1 SLP278
METAR CYNL 040300Z AUTO 30004KT 9SM CLR M15/M21 A3015 RMK AO1 SLP279
METAR CYNL 040200Z AUTO 30004KT 9SM CLR M15/M21 A3016 RMK AO1 SLP284
METAR CYNL 040100Z AUTO ///// 9SM CLR M14/M21 A3017 RMK AO1 SLP288
METAR CYNL 040000Z AUTO ///// 9SM CLR M13/M21 A3018 RMK AO1 SLP294
METAR CYNL 032300Z AUTO 30007KT 9SM CLR M12/M21 A3019 RMK AO1 SLP295
METAR CYNL 032200Z AUTO 33007KT 9SM FEW130 M12/M21 A3020 RMK AO1 SLP297
METAR CYNL 032100Z AUTO 33007KT 9SM FEW200 M12/M21 A3021 RMK AO1 SLP299
METAR CYNL 032000Z AUTO 30006KT 9SM CLR M12/M21 A3021 RMK AO1 SLP300
METAR CYNL 031900Z AUTO 29007KT 9SM FEW180 M13/M22 A3022 RMK AO1 SLP303
METAR CYNL 031800Z AUTO 32005KT 9SM FEW190 M15/M22 A3023 RMK AO1 SLP309
METAR CYNL 031700Z AUTO 34006KT 9SM FEW150 M16/M23 A3025 RMK AO1 SLP316
METAR CYNL 031600Z AUTO 31006KT 9SM CLR M18/M24 A3026 RMK AO1 SLP320
METAR CYNL 031500Z AUTO 30005KT 9SM CLR M19/M25 A3027 RMK AO1 SLP327
METAR CYNL 031400Z AUTO ///// 9SM CLR M21/M26 A3026 RMK AO1 SLP326
METAR CYNL 031300Z AUTO 31002KT 9SM CLR M23/M27 A3027 RMK AO1 SLP328
METAR CYNL 031200Z AUTO 29004KT 9SM CLR M23/M27 A3026 RMK AO1 SLP322
METAR CYNL 031100Z AUTO 28003KT 9SM CLR M22/M26 A3026 RMK AO1 SLP316
METAR CYNL 031000Z AUTO 27003KT 9SM CLR M21/M25 A3026 RMK AO1 SLP316
METAR CYNL 030900Z AUTO 29003KT 9SM CLR M21/M25 A3026 RMK AO1 SLP314
METAR CYNL 030800Z AUTO 00000KT 9SM FEW130 M21/M25 A3026 RMK AO1 SLP317
METAR CYNL 030700Z AUTO 29002KT 9SM CLR M20/M25 A3027 RMK AO1 SLP319
METAR CYNL 030600Z AUTO 31003KT 9SM CLR M19/M24 A3027 RMK AO1 SLP317
METAR CYNL 030500Z AUTO 27004KT 9SM CLR M19/M23 A3025 RMK AO1 SLP310
METAR CYNL 030400Z AUTO 24004KT 9SM CLR M20/M24 A3026 RMK AO1 SLP313
METAR CYNL 030300Z AUTO 25003KT 9SM CLR M19/M22 A3025 RMK AO1 PRESRR SLP312
METAR CYNL 030200Z AUTO 23004KT 9SM CLR M17/M21 A3021 RMK AO1 SLP299
METAR CYNL 030100Z AUTO 22005KT 9SM CLR M14/M20 A3021 RMK AO1 PRESRR SLP298
METAR CYNL 030000Z AUTO 21007KT 9SM SCT023 M12/M18 A3018 RMK AO1 PRESRR SLP286
METAR CYNL 022300Z AUTO 22006KT 9SM CLR M11/M17 A3015 RMK AO1 PRESRR SLP275
METAR CYNL 022200Z AUTO 22008KT 9SM CLR M11/M16 A3011 RMK AO1 PRESRR SLP261
SPECI CYNL 022111Z AUTO 23010KT 9SM FEW007 SCT017 BKN220 M12/M17 A3008 RMK AO1 PRESRR SLP252
SPECI CYNL 022103Z AUTO 24008KT 9SM SCT007 BKN020 BKN027 M12/M16 A3007 RMK AO1 PRESRR SLP249
METAR CYNL 022100Z AUTO 23010KT 9SM VV008 M12/M16 A3007 RMK AO1 PRESRR SLP248
SPECI CYNL 022059Z AUTO 23010KT 9SM VV009 M12/M16 A3007 RMK AO1 PRESRR SLP248
SPECI CYNL 022055Z AUTO 22008KT 9SM VV014 M12/M16 A3006 RMK AO1 PRESRR SLP248
SPECI CYNL 022035Z AUTO 24007KT 5SM VV022 M13/M16 A3006 RMK AO1 PRESRR SLP246
SPECI CYNL 022005Z AUTO ///// 7SM SCT003 OVC010 M13/M16 A3004 RMK AO1 PRESRR SLP240
METAR CYNL 022000Z AUTO ///// 3SM SCT003 OVC009 M13/M16 A3004 RMK AO1 PRESRR SLP239
SPECI CYNL 021958Z AUTO ///// 3SM SCT003 OVC009 M13/M16 A3003 RMK AO1 PRESRR SLP238
SPECI CYNL 021948Z AUTO ///// 2SM SCT003 OVC009 M13/M16 A3003 RMK AO1 SLP237
SPECI CYNL 021944Z AUTO ///// 1 1/2SM BKN003 OVC009 M13/M15 A3002 RMK AO1 SLP236
SPECI CYNL 021939Z AUTO ///// 1 1/4SM SCT003 OVC009 M13/M15 A3002 RMK AO1 SLP233
SPECI CYNL 021936Z AUTO 24007KT 1 1/2SM VV009 M12/M15 A3002 RMK AO1 SLP233
SPECI CYNL 021933Z AUTO 25006KT 1 1/4SM VV009 M12/M15 A3001 RMK AO1 SLP231
SPECI CYNL 021923Z AUTO 25006KT 1 1/4SM BKN003 OVC007 M12/M15 A3001 RMK AO1 SLP231
SPECI CYNL 021922Z AUTO 26006KT 1 1/2SM BKN003 OVC007 M12/M15 A3001 RMK AO1 SLP231
SPECI CYNL 021902Z AUTO 25008KT 1 1/4SM OVC007 M11/M13 A2999 RMK AO1 SLP222
METAR CYNL 021900Z AUTO 26007KT 230V290 1 1/2SM OVC007 M11/M13 A3000 RMK AO1 SLP224
SPECI CYNL 021846Z AUTO 27004KT 1 3/4SM BKN007 OVC009 M11/M13 A2998 RMK AO1 SLP216
SPECI CYNL 021836Z AUTO 29005KT 2 1/2SM BKN008 OVC010 M10/M13 A2998 RMK AO1 SLP216
SPECI CYNL 021822Z AUTO 29004KT 3SM OVC009 M11/M13 A2998 RMK AO1 SLP216
SPECI CYNL 021818Z AUTO 29005KT 2SM BKN010 OVC012 M11/M13 A2998 RMK AO1 SLP216
SPECI CYNL 021815Z AUTO 29005KT 1 1/2SM BKN010 OVC014 M10/M13 A2998 RMK AO1 SLP216
SPECI CYNL 021814Z AUTO 29004KT 1 1/4SM BKN010 OVC014 M10/M13 A2998 RMK AO1 SLP217
SPECI CYNL 021806Z AUTO 29005KT 1 3/4SM BKN010 OVC012 M11/M14 A2998 RMK AO1 SLP217
METAR CYNL 021800Z AUTO 31004KT 2 1/2SM BKN010 OVC012 M10/M13 A2998 RMK AO1 SLP218
SPECI CYNL 021757Z AUTO 31005KT 2SM OVC010 M10/M13 A2998 RMK AO1 PRESFR SLP217
SPECI CYNL 021755Z AUTO 31005KT 1 1/2SM BKN010 OVC012 M10/M14 A2998 RMK AO1 PRESFR SLP217
SPECI CYNL 021753Z AUTO 31005KT 1 1/4SM BKN010 OVC012 M11/M14 A2999 RMK AO1 PRESFR SLP218
SPECI CYNL 021750Z AUTO 31003KT 1 3/4SM BKN010 OVC012 M11/M14 A2999 RMK AO1 PRESFR SLP218
SPECI CYNL 021748Z AUTO 30005KT 2 1/2SM OVC010 M11/M14 A2999 RMK AO1 PRESFR SLP218
SPECI CYNL 021735Z AUTO 32007KT 4SM BKN011 OVC020 M10/M13 A2998 RMK AO1 PRESFR SLP216
SPECI CYNL 021733Z AUTO 32006KT 5SM SCT011 BKN015 OVC020 M10/M13 A2998 RMK AO1 PRESFR SLP216
SPECI CYNL 021723Z AUTO 32005KT 5SM FEW008 BKN014 OVC020 M10/M13 A2999 RMK AO1 PRESFR SLP217
SPECI CYNL 021720Z AUTO 31005KT 3SM FEW009 SCT015 OVC020 M10/M13 A2998 RMK AO1 PRESFR SLP217
SPECI CYNL 021718Z AUTO 34006KT 2SM SCT009 OVC020 M10/M13 A2999 RMK AO1 PRESFR SLP218
SPECI CYNL 021715Z AUTO 33006KT 1 3/4SM SCT008 BKN015 OVC021 M10/M13 A2999 RMK AO1 PRESFR SLP218
SPECI CYNL 021714Z AUTO 33006KT 1 3/4SM SCT008 BKN014 OVC020 M10/M13 A2999 RMK AO1 PRESFR SLP218
SPECI CYNL 021707Z AUTO 34006KT 1 1/2SM VV015 M10/M13 A2999 RMK AO1 PRESFR SLP219
SPECI CYNL 021706Z AUTO 34005KT 1 1/2SM VV014 M10/M13 A2999 RMK AO1 PRESFR SLP219
SPECI CYNL 021704Z AUTO 34005KT 1SM VV011 M10/M13 A2999 RMK AO1 PRESFR SLP218
SPECI CYNL 021703Z AUTO 34005KT 3/4SM VV010 M10/M13 A2999 RMK AO1 PRESFR SLP219
SPECI CYNL 021702Z AUTO 34006KT 3/4SM VV009 M10/M13 A2999 RMK AO1 PRESFR SLP219
METAR CYNL 021700Z AUTO 33006KT 1SM VV008 M10/M13 A2999 RMK AO1 PRESFR SLP219
SPECI CYNL 021659Z AUTO 34006KT 1SM VV008 M10/M13 A2999 RMK AO1 PRESFR SLP219
SPECI CYNL 021648Z AUTO 32003KT 5/8SM VV009 M11/M14 A3000 RMK AO1 PRESFR SLP221
SPECI CYNL 021646Z AUTO 33005KT 5/8SM VV011 M11/M14 A3000 RMK AO1 PRESFR SLP222
SPECI CYNL 021645Z AUTO 34004KT 3/4SM VV012 M11/M14 A3000 RMK AO1 PRESFR SLP222
SPECI CYNL 021641Z AUTO 33004KT 1 1/4SM VV014 M11/M14 A3000 RMK AO1 PRESFR SLP222
SPECI CYNL 021640Z AUTO 33006KT 1 1/4SM VV015 M11/M14 A3000 RMK AO1 PRESFR SLP222
SPECI CYNL 021638Z AUTO 33004KT 1 1/2SM VV015 M11/M15 A3000 RMK AO1 PRESFR SLP223
SPECI CYNL 021635Z AUTO 35005KT 1 1/4SM VV015 M11/M15 A3000 RMK AO1 PRESFR SLP224
SPECI CYNL 021633Z AUTO 34007KT 1SM VV013 M12/M15 A3000 RMK AO1 PRESFR SLP223
SPECI CYNL 021631Z AUTO 33006KT 3/4SM VV012 M12/M15 A3000 RMK AO1 PRESFR SLP224
SPECI CYNL 021630Z AUTO 33006KT 1SM VV012 M12/M15 A3000 RMK AO1 PRESFR SLP224
SPECI CYNL 021627Z AUTO 35004KT 3/4SM VV010 M12/M15 A3000 RMK AO1 PRESFR SLP224
SPECI CYNL 021625Z AUTO 34005KT 1SM VV010 M12/M15 A3000 RMK AO1 PRESFR SLP223
SPECI CYNL 021623Z AUTO 32004KT 1SM VV009 M12/M15 A3000 RMK AO1 PRESFR SLP223
SPECI CYNL 021622Z AUTO 33005KT 1SM VV010 M12/M15 A3000 RMK AO1 PRESFR SLP223
SPECI CYNL 021620Z AUTO 35005KT 3/4SM VV011 M12/M15 A3000 RMK AO1 PRESFR SLP224
SPECI CYNL 021616Z AUTO 35006KT 1 1/4SM VV013 M12/M15 A3000 RMK AO1 PRESFR SLP224
SPECI CYNL 021612Z AUTO 34006KT 1 1/2SM VV011 M12/M16 A3000 RMK AO1 PRESFR SLP225
SPECI CYNL 021611Z AUTO 34006KT 1 1/4SM VV010 M12/M16 A3000 RMK AO1 PRESFR SLP225
SPECI CYNL 021608Z AUTO 34005KT 1SM VV007 M13/M16 A3000 RMK AO1 PRESFR SLP226
SPECI CYNL 021604Z AUTO 33006KT 3/4SM VV008 M13/M16 A3000 RMK AO1 PRESFR SLP227
SPECI CYNL 021603Z AUTO 33006KT 1SM VV008 M13/M16 A3001 RMK AO1 PRESFR SLP228
SPECI CYNL 021602Z AUTO 34006KT 3/4SM VV008 M13/M16 A3001 RMK AO1 PRESFR SLP229
METAR CYNL 021600Z AUTO 34006KT 5/8SM VV007 M13/M16 A3001 RMK AO1 PRESFR SLP230
SPECI CYNL 021547Z AUTO 33004KT 5/8SM VV009 M14/M17 A3002 RMK AO1 SLP233
SPECI CYNL 021544Z AUTO 34005KT 5/8SM VV011 M14/M17 A3002 RMK AO1 SLP234
SPECI CYNL 021543Z AUTO 33005KT 3/4SM VV012 M14/M17 A3002 RMK AO1 SLP234
SPECI CYNL 021537Z AUTO 34005KT 1SM VV011 M14/M17 A3003 RMK AO1 SLP236
SPECI CYNL 021536Z AUTO 34005KT 3/4SM VV010 M14/M17 A3003 RMK AO1 SLP236
SPECI CYNL 021534Z AUTO 33005KT 3/4SM VV009 M14/M17 A3003 RMK AO1 SLP237
SPECI CYNL 021531Z AUTO 34008KT 3/4SM VV010 M14/M17 A3003 RMK AO1 SLP237
SPECI CYNL 021529Z AUTO 34008KT 5/8SM VV010 M14/M18 A3003 RMK AO1 SLP238
SPECI CYNL 021525Z AUTO 35007KT 3/4SM VV010 M14/M18 A3004 RMK AO1 SLP239
SPECI CYNL 021524Z AUTO 35008KT 3/4SM VV009 M14/M18 A3004 RMK AO1 SLP239
METAR CYNL 021500Z AUTO 00006KT 3/8SM VV007 M15/M19 A3006 RMK AO1 SLP247
SPECI CYNL 021454Z AUTO 00005KT 5/8SM VV009 M16/M19 A3006 RMK AO1 PRESFR SLP248
SPECI CYNL 021453Z AUTO 00006KT 5/8SM VV010 M16/M19 A3006 RMK AO1 PRESFR SLP249
SPECI CYNL 021452Z AUTO 00005KT 3/4SM VV010 M16/M19 A3006 RMK AO1 PRESFR SLP249
SPECI CYNL 021451Z AUTO 00006KT 1SM VV010 M16/M19 A3006 RMK AO1 PRESFR SLP249
SPECI CYNL 021449Z AUTO 00006KT 3/4SM VV009 M16/M19 A3007 RMK AO1 PRESFR SLP250
SPECI CYNL 021424Z AUTO ///// 5/8SM VV009 M16/M20 A3006 RMK AO1 PRESFR SLP248
SPECI CYNL 021423Z AUTO ///// 5/8SM VV010 M16/M20 A3006 RMK AO1 PRESFR SLP249
SPECI CYNL 021422Z AUTO ///// 3/4SM VV010 M16/M20 A3006 RMK AO1 PRESFR SLP249
SPECI CYNL 021421Z AUTO ///// 1SM VV010 M16/M20 A3006 RMK AO1 PRESFR SLP249
SPECI CYNL 021419Z AUTO ///// 1SM VV009 M16/M20 A3006 RMK AO1 PRESFR SLP250
SPECI CYNL 021417Z AUTO ///// 3/4SM VV009 M16/M20 A3006 RMK AO1 PRESFR SLP250
SPECI CYNL 021415Z AUTO ///// 5/8SM VV009 M17/M20 A3006 RMK AO1 PRESFR SLP250
SPECI CYNL 021410Z AUTO ///// 3/4SM VV009 M17/M20 A3006 RMK AO1 PRESFR SLP250
SPECI CYNL 021407Z AUTO ///// 1SM VV009 M17/M20 A3006 RMK AO1 PRESFR SLP251
METAR CYNL 021400Z AUTO ///// 1 1/4SM VV014 M17/M21 A3007 RMK AO1 PRESFR SLP253
SPECI CYNL 021359Z AUTO ///// 1 1/4SM VV014 M17/M21 A3007 RMK AO1 PRESFR SLP253
SPECI CYNL 021357Z AUTO ///// 1 1/4SM VV015 M17/M21 A3007 RMK AO1 PRESFR SLP253
SPECI CYNL 021355Z AUTO ///// 1 1/2SM VV015 M17/M21 A3007 RMK AO1 PRESFR SLP254
SPECI CYNL 021346Z AUTO 35009KT 1 1/4SM VV014 M18/M21 A3008 RMK AO1 PRESFR SLP256
SPECI CYNL 021341Z AUTO 35008KT 1 1/2SM VV013 M18/M21 A3008 RMK AO1 PRESFR SLP257
SPECI CYNL 021333Z AUTO 35010KT 1SM VV010 M18/M21 A3009 RMK AO1 PRESFR SLP260
SPECI CYNL 021332Z AUTO 35010KT 1SM VV009 M18/M21 A3009 RMK AO1 PRESFR SLP261
SPECI CYNL 021329Z AUTO 35009KT 3/4SM VV009 M18/M21 A3009 RMK AO1 PRESFR SLP261
SPECI CYNL 021328Z AUTO 35010KT 1SM VV009 M18/M21 A3009 RMK AO1 PRESFR SLP261
SPECI CYNL 021326Z AUTO 35009KT 3/4SM VV009 M18/M21 A3009 RMK AO1 PRESFR SLP262
SPECI CYNL 021304Z AUTO ///// 5/8SM VV009 M19/M22 A3011 RMK AO1 PRESFR SLP267
SPECI CYNL 021301Z AUTO 35009KT 5/8SM VV010 M19/M22 A3011 RMK AO1 PRESFR SLP268
METAR CYNL 021300Z AUTO ///// 5/8SM VV009 M19/M22 A3011 RMK AO1 PRESFR SLP268
SPECI CYNL 021252Z AUTO 35009KT 5/8SM VV009 M19/M22 A3012 RMK AO1 PRESFR SLP270
SPECI CYNL 021250Z AUTO ///// 5/8SM VV010 M19/M22 A3012 RMK AO1 PRESFR SLP270
SPECI CYNL 021246Z AUTO ///// 3/4SM VV010 M19/M22 A3012 RMK AO1 PRESFR SLP272
SPECI CYNL 021245Z AUTO 35010KT 5/8SM VV010 M19/M22 A3012 RMK AO1 PRESFR SLP272
SPECI CYNL 021226Z AUTO 35008KT 5/8SM FEW003 BKN007 OVC009 M19/M22 A3014 RMK AO1 PRESFR SLP278
SPECI CYNL 021223Z AUTO 35008KT 1 1/4SM BKN007 OVC009 M19/M22 A3014 RMK AO1 PRESFR SLP279
SPECI CYNL 021219Z AUTO 35008KT 1 3/4SM BKN007 BKN009 OVC012 M19/M22 A3014 RMK AO1 PRESFR SLP280
SPECI CYNL 021203Z AUTO 34009KT 2SM BKN008 OVC012 M19/M23 A3015 RMK AO1 PRESFR SLP282
SPECI CYNL 021201Z AUTO 35009KT 1 3/4SM FEW006 BKN008 OVC012 M19/M23 A3015 RMK AO1 PRESFR SLP283
METAR CYNL 021200Z AUTO 35009KT 1 1/2SM FEW006 SCT009 OVC012 M19/M23 A3015 RMK AO1 PRESFR SLP283
SPECI CYNL 021157Z AUTO 34009KT 1 1/2SM FEW006 SCT007 OVC012 M19/M23 A3015 RMK AO1 PRESFR SLP284
SPECI CYNL 021156Z AUTO 34008KT 1 1/4SM FEW006 SCT007 OVC012 M19/M23 A3016 RMK AO1 PRESFR SLP285
SPECI CYNL 021148Z AUTO 34010KT 1SM VV011 M19/M23 A3016 RMK AO1 PRESFR SLP286
SPECI CYNL 021135Z AUTO 35010KT 1SM OVC006 M19/M23 A3017 RMK AO1 PRESFR SLP288
SPECI CYNL 021133Z AUTO 35010KT 1 3/4SM OVC006 M19/M22 A3017 RMK AO1 PRESFR SLP288
SPECI CYNL 021128Z AUTO 34010KT 2SM OVC006 M20/M23 A3017 RMK AO1 PRESFR SLP288
SPECI CYNL 021125Z AUTO 34010KT 1 3/4SM OVC006 M20/M23 A3017 RMK AO1 PRESFR SLP288
SPECI CYNL 021123Z AUTO 34011KT 2 1/2SM OVC006 M20/M23 A3017 RMK AO1 PRESFR SLP289
SPECI CYNL 021118Z AUTO 35008KT 3SM OVC006 M20/M23 A3018 RMK AO1 PRESFR SLP292
SPECI CYNL 021112Z AUTO 34010KT 2 1/2SM OVC007 M20/M23 A3018 RMK AO1 PRESFR SLP292
METAR CYNL 021100Z AUTO ///// 4SM OVC007 M20/M23 A3019 RMK AO1 PRESFR SLP295
METAR CYNL 021000Z AUTO ///// 9SM OVC009 M20/M23 A3021 RMK AO1 SLP302
SPECI CYNL 020937Z AUTO 00008KT 9SM OVC009 M20/M23 A3021 RMK AO1 PRESFR SLP303
METAR CYNL 020900Z AUTO ///// 9SM OVC011 M20/M24 A3022 RMK AO1 PRESFR SLP306
SPECI CYNL 020843Z AUTO ///// 3SM BKN013 BKN020 OVC030 M20/M24 A3024 RMK AO1 SLP314
SPECI CYNL 020840Z AUTO ///// 2SM BKN013 OVC030 M20/M24 A3025 RMK AO1 SLP315
SPECI CYNL 020831Z AUTO ///// 1 3/4SM VV014 M20/M24 A3025 RMK AO1 SLP317
SPECI CYNL 020829Z AUTO ///// 2 1/2SM FEW014 SCT020 OVC030 M20/M24 A3025 RMK AO1 SLP317
SPECI CYNL 020823Z AUTO ///// 6SM FEW020 OVC030 M20/M24 A3026 RMK AO1 SLP319
SPECI CYNL 020822Z AUTO ///// 6SM VV021 M20/M24 A3026 RMK AO1 SLP319
SPECI CYNL 020802Z AUTO ///// 6SM FEW008 SCT016 OVC032 M20/M24 A3027 RMK AO1 SLP321
METAR CYNL 020800Z AUTO ///// 5SM FEW008 BKN015 OVC032 M20/M24 A3027 RMK AO1 SLP322
SPECI CYNL 020755Z AUTO ///// 4SM FEW008 BKN017 OVC032 M20/M24 A3026 RMK AO1 PRESFR SLP319
SPECI CYNL 020747Z AUTO ///// 6SM VV015 M20/M24 A3025 RMK AO1 PRESFR SLP317
SPECI CYNL 020744Z AUTO 00009KT 4SM VV011 M20/M24 A3026 RMK AO1 PRESFR SLP318
SPECI CYNL 020740Z AUTO ///// 3SM VV008 M20/M24 A3026 RMK AO1 PRESFR SLP320
SPECI CYNL 020739Z AUTO ///// 2 1/2SM VV009 M20/M24 A3026 RMK AO1 PRESFR SLP321
SPECI CYNL 020734Z AUTO 00009KT 2SM VV014 M20/M24 A3027 RMK AO1 PRESFR SLP321
SPECI CYNL 020731Z AUTO 35008KT 2 1/2SM VV018 M20/M24 A3026 RMK AO1 PRESFR SLP321
SPECI CYNL 020726Z AUTO 00008KT 4SM VV023 M20/M24 A3026 RMK AO1 PRESFR SLP321
SPECI CYNL 020723Z AUTO 00009KT 3SM VV025 M20/M24 A3027 RMK AO1 PRESFR SLP321
SPECI CYNL 020716Z AUTO ///// 3SM VV015 M20/M24 A3027 RMK AO1 PRESFR SLP322
SPECI CYNL 020710Z AUTO ///// 3SM VV014 M20/M24 A3026 RMK AO1 PRESFR SLP320
METAR CYNL 020700Z AUTO ///// 6SM VV017 M20/M24 A3027 RMK AO1 PRESFR SLP323
SPECI CYNL 020657Z AUTO ///// 6SM VV015 M20/M24 A3027 RMK AO1 PRESFR SLP326
SPECI CYNL 020650Z AUTO 01009KT 3SM VV014 M20/M24 A3029 RMK AO1 PRESFR SLP330
SPECI CYNL 020646Z AUTO ///// 4SM VV015 M20/M24 A3029 RMK AO1 PRESFR SLP330
SPECI CYNL 020644Z AUTO 01009KT 3SM VV014 M20/M24 A3029 RMK AO1 PRESFR SLP330
SPECI CYNL 020638Z AUTO 00007KT 2 1/2SM VV014 M20/M23 A3029 RMK AO1 PRESFR SLP330
SPECI CYNL 020625Z AUTO ///// 3SM VV013 M20/M23 A3029 RMK AO1 PRESFR SLP330
SPECI CYNL 020622Z AUTO 01011KT 2 1/2SM VV014 M20/M23 A3029 RMK AO1 PRESFR SLP330
SPECI CYNL 020619Z AUTO 01009KT 3SM VV015 M20/M23 A3029 RMK AO1 PRESFR SLP331
SPECI CYNL 020615Z AUTO 01009KT 2 1/2SM VV015 M20/M23 A3030 RMK AO1 PRESFR SLP333
SPECI CYNL 020611Z AUTO ///// 2SM VV014 M19/M23 A3030 RMK AO1 PRESFR SLP333
SPECI CYNL 020601Z AUTO 00009KT 1 1/2SM VV013 M19/M23 A3029 RMK AO1 PRESFR SLP331
METAR CYNL 020600Z AUTO 01009KT 1 1/4SM VV013 M19/M23 A3029 RMK AO1 PRESFR SLP331
SPECI CYNL 020541Z AUTO 01009KT 1SM VV011 M19/M23 A3030 RMK AO1 SLP336
SPECI CYNL 020540Z AUTO 01008KT 3/4SM VV011 M19/M23 A3030 RMK AO1 SLP336
SPECI CYNL 020539Z AUTO 01008KT 5/8SM VV010 M19/M23 A3030 RMK AO1 SLP336
SPECI CYNL 020530Z AUTO 01010KT 3/8SM VV009 M19/M23 A3031 RMK AO1 SLP336
SPECI CYNL 020524Z AUTO 02010G16KT 5/8SM VV014 M19/M23 A3031 RMK AO1 SLP338
SPECI CYNL 020521Z AUTO ///// 1 1/4SM OVC014 M19/M23 A3031 RMK AO1 SLP339
SPECI CYNL 020520Z AUTO ///// 1 3/4SM SCT012 OVC015 M19/M23 A3031 RMK AO1 SLP339
SPECI CYNL 020519Z AUTO 02010G16KT 2 1/2SM SCT012 OVC015 M19/M23 A3031 RMK AO1 SLP339
SPECI CYNL 020512Z AUTO 02008KT 9SM OVC014 M19/M23 A3032 RMK AO1 SLP340
METAR CYNL 020500Z AUTO ///// 9SM BKN015 OVC018 M19/M23 A3032 RMK AO1 SLP340
METAR CYNL 020400Z AUTO ///// 9SM OVC019 M18/M23 A3031 RMK AO1 PRESFR SLP339
SPECI CYNL 020311Z AUTO 02008KT 9SM BKN023 OVC030 M18/M22 A3033 RMK AO1 SLP344
SPECI CYNL 020303Z AUTO 03008KT 9SM FEW024 OVC030 M18/M22 A3034 RMK AO1 SLP347
METAR CYNL 020300Z AUTO 03008KT 9SM OVC029 M18/M22 A3034 RMK AO1 SLP347
METAR CYNL 020200Z AUTO 02007KT 9SM OVC028 M17/M21 A3034 RMK AO1 SLP348
SPECI CYNL 020127Z AUTO ///// 8SM SCT023 OVC028 M17/M22 A3034 RMK AO1 SLP348
SPECI CYNL 020126Z AUTO ///// 9SM BKN023 OVC028 M17/M22 A3034 RMK AO1 SLP348
METAR CYNL 020100Z AUTO ///// 9SM OVC028 M16/M21 A3034 RMK AO1 SLP346
SPECI CYNL 020024Z AUTO ///// 9SM OVC029 M16/M22 A3032 RMK AO1 SLP342
METAR CYNL 020000Z AUTO ///// 9SM FEW022 OVC030 M16/M22 A3031 RMK AO1 SLP339
SPECI CYNL 012353Z AUTO ///// 9SM FEW023 OVC030 M16/M21 A3032 RMK AO1 SLP339
SPECI CYNL 012316Z AUTO ///// 9SM FEW022 OVC029 M16/M21 A3031 RMK AO1 SLP338
METAR CYNL 012300Z AUTO ///// 9SM SCT022 OVC030 M16/M21 A3031 RMK AO1 SLP336
METAR CYNL 012200Z AUTO ///// 9SM FEW010 BKN032 M15/M21 A3030 RMK AO1 SLP332
SPECI CYNL 012145Z AUTO 02008KT 9SM SCT010 BKN033 M15/M21 A3031 RMK AO1 SLP336
SPECI CYNL 012128Z AUTO ///// 6SM SCT010 BKN016 OVC022 M15/M21 A3031 RMK AO1 SLP337
SPECI CYNL 012127Z AUTO 01009KT 7SM FEW007 BKN013 OVC022 M15/M21 A3031 RMK AO1 SLP337
SPECI CYNL 012124Z AUTO 01006KT 3SM VV012 M15/M21 A3031 RMK AO1 SLP338
SPECI CYNL 012120Z AUTO ///// 2 1/2SM VV014 M15/M21 A3031 RMK AO1 SLP337
SPECI CYNL 012112Z AUTO 01007KT 5SM FEW008 SCT016 BKN022 M15/M21 A3031 RMK AO1 SLP337
SPECI CYNL 012110Z AUTO ///// 3SM VV014 M15/M21 A3031 RMK AO1 SLP337
SPECI CYNL 012106Z AUTO 00007KT 2 1/2SM VV014 M15/M21 A3031 RMK AO1 SLP337
SPECI CYNL 012104Z AUTO ///// 2 1/2SM FEW009 SCT016 BKN022 M15/M21 A3031 RMK AO1 SLP337
SPECI CYNL 012102Z AUTO ///// 3SM FEW009 SCT016 BKN022 M15/M21 A3031 RMK AO1 SLP337
SPECI CYNL 012101Z AUTO ///// 4SM VV014 M15/M21 A3031 RMK AO1 SLP337
METAR CYNL 012100Z AUTO 01007KT 4SM FEW009 BKN022 M15/M21 A3031 RMK AO1 SLP337
SPECI CYNL 012055Z AUTO 01006KT 6SM FEW008 BKN022 BKN180 M15/M21 A3031 RMK AO1 SLP336
SPECI CYNL 012036Z AUTO 05007KT 5SM BKN023 M15/M21 A3031 RMK AO1 SLP336
METAR CYNL 012000Z AUTO 07006KT 9SM FEW024 BKN036 BKN200 M15/M22 A3030 RMK AO1 SLP331
SPECI CYNL 011945Z AUTO 04006KT 9SM SCT023 BKN036 M16/M22 A3029 RMK AO1 SLP330
SPECI CYNL 011914Z AUTO ///// 7SM FEW008 BKN023 BKN200 M16/M22 A3029 RMK AO1 SLP330
SPECI CYNL 011911Z AUTO 03007KT 6SM FEW009 SCT023 BKN038 M16/M22 A3029 RMK AO1 SLP329
METAR CYNL 011900Z AUTO 05007KT 7SM SCT021 BKN150 BKN210 M16/M22 A3029 RMK AO1 SLP331
SPECI CYNL 011811Z AUTO ///// 7SM FEW008 SCT021 BKN040 M17/M23 A3028 RMK AO1 SLP329
METAR CYNL 011800Z AUTO ///// 9SM FEW022 BKN040 M17/M23 A3028 RMK AO1 SLP327
SPECI CYNL 011726Z AUTO ///// 9SM FEW009 BKN042 M17/M23 A3028 RMK AO1 SLP326
SPECI CYNL 011706Z AUTO ///// 7SM SCT012 BKN044 M18/M24 A3029 RMK AO1 SLP330
SPECI CYNL 011705Z AUTO ///// 6SM BKN012 BKN044 M18/M24 A3029 RMK AO1 SLP331
METAR CYNL 011700Z AUTO ///// 5SM SCT014 BKN045 M18/M24 A3029 RMK AO1 SLP331
SPECI CYNL 011658Z AUTO ///// 6SM SCT015 BKN045 BKN130 M18/M23 A3029 RMK AO1 SLP330
SPECI CYNL 011657Z AUTO ///// 5SM VV013 M18/M23 A3029 RMK AO1 SLP330
SPECI CYNL 011655Z AUTO ///// 5SM SCT015 BKN045 BKN160 M18/M23 A3029 RMK AO1 SLP331
SPECI CYNL 011654Z AUTO ///// 6SM VV016 M18/M23 A3029 RMK AO1 SLP330
SPECI CYNL 011609Z AUTO 07012KT 9SM FEW013 OVC048 M19/M24 A3027 RMK AO1 SLP326
SPECI CYNL 011606Z AUTO ///// 2 1/2SM FEW013 OVC048 M19/M24 A3027 RMK AO1 SLP326
METAR CYNL 011600Z AUTO ///// 9SM FEW012 BKN048 OVC180 M19/M24 A3027 RMK AO1 SLP325
SPECI CYNL 011554Z AUTO ///// 6SM FEW009 BKN049 OVC180 M19/M24 A3026 RMK AO1 SLP322
SPECI CYNL 011529Z AUTO ///// 5SM OVC050 M19/M24 A3027 RMK AO1 SLP324
SPECI CYNL 011527Z AUTO ///// 2 1/2SM OVC050 M19/M24 A3027 RMK AO1 SLP323
SPECI CYNL 011512Z AUTO ///// 9SM OVC052 M19/M24 A3027 RMK AO1 SLP324
SPECI CYNL 011509Z AUTO ///// 1 1/4SM OVC052 M19/M24 A3027 RMK AO1 SLP324
METAR CYNL 011500Z AUTO ///// 5SM OVC052 M19/M24 A3027 RMK AO1 SLP323
SPECI CYNL 011438Z AUTO ///// 6SM FEW019 BKN054 M19/M24 A3027 RMK AO1 SLP323
SPECI CYNL 011437Z AUTO 05009KT 2 1/2SM FEW019 BKN054 M19/M24 A3027 RMK AO1 SLP323
SPECI CYNL 011436Z AUTO ///// 1SM FEW019 BKN054 M19/M24 A3027 RMK AO1 SLP324
SPECI CYNL 011435Z AUTO ///// 5/8SM SCT018 BKN054 M19/M24 A3027 RMK AO1 SLP324
SPECI CYNL 011434Z AUTO ///// 3/4SM SCT018 BKN054 M19/M24 A3027 RMK AO1 SLP323
SPECI CYNL 011428Z AUTO ///// 5SM SCT017 BKN056 M19/M24 A3026 RMK AO1 SLP321
SPECI CYNL 011426Z AUTO ///// 5SM SCT016 BKN025 BKN056 M19/M24 A3026 RMK AO1 SLP322
SPECI CYNL 011425Z AUTO ///// 3SM SCT016 BKN024 BKN056 M20/M24 A3026 RMK AO1 SLP322
SPECI CYNL 011422Z AUTO ///// 3/8SM SCT016 BKN022 BKN031 M20/M24 A3027 RMK AO1 SLP323
SPECI CYNL 011421Z AUTO ///// 2SM SCT016 BKN022 OVC210 M20/M24 A3027 RMK AO1 SLP323
METAR CYNL 011400Z AUTO ///// 6SM VV020 M20/M24 A3027 RMK AO1 SLP324
SPECI CYNL 011354Z AUTO ///// 5SM VV024 M20/M24 A3027 RMK AO1 SLP324
SPECI CYNL 011351Z AUTO 04010KT 4SM VV029 M20/M24 A3027 RMK AO1 SLP324
SPECI CYNL 011349Z AUTO ///// 3SM VV032 M20/M24 A3027 RMK AO1 SLP324
SPECI CYNL 011343Z AUTO ///// 2SM VV033 M20/M24 A3027 RMK AO1 SLP325
SPECI CYNL 011341Z AUTO 03011KT 1 1/2SM VV031 M20/M24 A3028 RMK AO1 SLP327
SPECI CYNL 011340Z AUTO ///// 3/4SM VV029 M20/M24 A3028 RMK AO1 SLP327
SPECI CYNL 011339Z AUTO ///// 5/8SM VV030 M20/M24 A3028 RMK AO1 SLP327
SPECI CYNL 011338Z AUTO ///// 3/4SM VV029 M20/M24 A3028 RMK AO1 SLP327
SPECI CYNL 011334Z AUTO ///// 3SM VV026 M20/M24 A3027 RMK AO1 SLP325
SPECI CYNL 011333Z AUTO ///// 3SM VV024 M20/M24 A3027 RMK AO1 SLP324
SPECI CYNL 011332Z AUTO ///// 2 1/2SM VV025 M20/M24 A3027 RMK AO1 SLP325
SPECI CYNL 011329Z AUTO 03011KT 2SM VV020 M20/M24 A3028 RMK AO1 SLP327
SPECI CYNL 011326Z AUTO 03009KT 1 3/4SM VV020 M20/M24 A3027 RMK AO1 SLP325
SPECI CYNL 011325Z AUTO ///// 2SM VV019 M20/M24 A3027 RMK AO1 SLP326
SPECI CYNL 011323Z AUTO ///// 1 3/4SM VV018 M20/M24 A3027 RMK AO1 SLP326
SPECI CYNL 011320Z AUTO ///// 2SM VV018 M20/M24 A3027 RMK AO1 SLP324
SPECI CYNL 011302Z AUTO ///// 1 1/2SM VV022 M20/M24 A3027 RMK AO1 SLP323
METAR CYNL 011300Z AUTO ///// 1 1/4SM VV021 M20/M24 A3026 RMK AO1 SLP322
SPECI CYNL 011241Z AUTO ///// 1SM VV015 M20/M24 A3027 RMK AO1 SLP322
SPECI CYNL 011238Z AUTO ///// 1SM VV013 M20/M24 A3027 RMK AO1 SLP323
SPECI CYNL 011236Z AUTO ///// 3/4SM VV011 M20/M24 A3027 RMK AO1 SLP322
SPECI CYNL 011233Z AUTO ///// 1/2SM VV010 M20/M24 A3027 RMK AO1 SLP322
METAR CYNL 011200Z AUTO ///// 5/8SM VV008 M20/M24 A3026 RMK AO1 SLP320
SPECI CYNL 011158Z AUTO ///// 5/8SM VV008 M20/M24 A3026 RMK AO1 SLP319
SPECI CYNL 011155Z AUTO ///// 3/4SM VV009 M20/M24 A3026 RMK AO1 SLP319
SPECI CYNL 011151Z AUTO ///// 1SM VV009 M20/M24 A3026 RMK AO1 SLP319
SPECI CYNL 011143Z AUTO ///// 1 1/4SM VV010 M20/M24 A3026 RMK AO1 SLP318
SPECI CYNL 011133Z AUTO ///// 1SM VV009 M20/M24 A3025 RMK AO1 SLP317
SPECI CYNL 011132Z AUTO ///// 1SM VV010 M20/M24 A3025 RMK AO1 SLP317
SPECI CYNL 011131Z AUTO ///// 1SM VV009 M20/M24 A3025 RMK AO1 SLP316
SPECI CYNL 011130Z AUTO ///// 1SM VV010 M20/M24 A3025 RMK AO1 SLP316
SPECI CYNL 011119Z AUTO ///// 1SM VV008 M20/M23 A3024 RMK AO1 SLP314
SPECI CYNL 011117Z AUTO ///// 3/4SM VV008 M20/M23 A3024 RMK AO1 SLP313
SPECI CYNL 011116Z AUTO ///// 1SM VV008 M20/M24 A3024 RMK AO1 SLP313
SPECI CYNL 011101Z AUTO ///// 3/4SM VV007 M20/M24 A3024 RMK AO1 SLP313
METAR CYNL 011100Z AUTO ///// 5/8SM VV007 M20/M24 A3024 RMK AO1 SLP313
SPECI CYNL 011051Z AUTO ///// 5/8SM VV009 M20/M23 A3025 RMK AO1 SLP314
SPECI CYNL 011049Z AUTO ///// 3/4SM VV009 M20/M23 A3025 RMK AO1 SLP314
SPECI CYNL 011046Z AUTO ///// 3/4SM VV011 M20/M24 A3025 RMK AO1 SLP315
SPECI CYNL 011045Z AUTO ///// 5/8SM VV011 M20/M23 A3025 RMK AO1 SLP316
SPECI CYNL 011044Z AUTO ///// 3/4SM VV012 M20/M23 A3025 RMK AO1 SLP316
SPECI CYNL 011038Z AUTO ///// 1SM VV012 M20/M23 A3025 RMK AO1 SLP316
SPECI CYNL 011037Z AUTO ///// 3/4SM VV012 M20/M23 A3026 RMK AO1 SLP316
SPECI CYNL 011033Z AUTO ///// 1SM VV014 M20/M23 A3025 RMK AO1 SLP316
SPECI CYNL 011032Z AUTO ///// 3/4SM VV014 M20/M23 A3025 RMK AO1 SLP316
SPECI CYNL 011030Z AUTO ///// 3/4SM VV015 M20/M24 A3025 RMK AO1 SLP316
SPECI CYNL 011021Z AUTO ///// 1 1/4SM VV018 M20/M24 A3025 RMK AO1 SLP316
SPECI CYNL 011020Z AUTO ///// 1 1/2SM VV018 M20/M24 A3025 RMK AO1 SLP316
SPECI CYNL 011014Z AUTO ///// 1 1/4SM VV017 M20/M23 A3026 RMK AO1 SLP319
SPECI CYNL 011010Z AUTO 03010KT 1 3/4SM VV017 M19/M23 A3026 RMK AO1 SLP320
SPECI CYNL 011009Z AUTO 04009KT 2SM VV017 M19/M23 A3027 RMK AO1 SLP320
SPECI CYNL 011008Z AUTO ///// 1 3/4SM VV017 M19/M23 A3027 RMK AO1 SLP320
SPECI CYNL 011007Z AUTO ///// 2SM VV016 M19/M23 A3027 RMK AO1 SLP320
SPECI CYNL 011004Z AUTO ///// 1 1/2SM VV016 M19/M23 A3027 RMK AO1 SLP320
SPECI CYNL 011001Z AUTO ///// 1 1/4SM VV015 M19/M23 A3026 RMK AO1 SLP320
METAR CYNL 011000Z AUTO ///// 1 1/2SM VV015 M19/M23 A3026 RMK AO1 SLP319
SPECI CYNL 010957Z AUTO ///// 1 1/2SM VV016 M19/M23 A3026 RMK AO1 SLP318
SPECI CYNL 010954Z AUTO ///// 2 1/2SM VV017 M19/M23 A3026 RMK AO1 SLP318
SPECI CYNL 010946Z AUTO ///// 3SM VV018 M19/M23 A3026 RMK AO1 SLP318
SPECI CYNL 010944Z AUTO ///// 2 1/2SM VV015 M19/M23 A3026 RMK AO1 SLP316
SPECI CYNL 010941Z AUTO ///// 2SM VV012 M19/M23 A3026 RMK AO1 SLP319
SPECI CYNL 010937Z AUTO ///// 1 1/2SM VV012 M19/M23 A3027 RMK AO1 SLP319
SPECI CYNL 010933Z AUTO ///// 1 1/4SM VV012 M19/M23 A3026 RMK AO1 SLP318
SPECI CYNL 010932Z AUTO ///// 1 1/2SM VV013 M19/M23 A3026 RMK AO1 SLP318
SPECI CYNL 010931Z AUTO ///// 1 1/4SM VV013 M19/M23 A3026 RMK AO1 SLP318
SPECI CYNL 010928Z AUTO ///// 1 3/4SM VV014 M19/M23 A3026 RMK AO1 SLP317
SPECI CYNL 010924Z AUTO ///// 1 3/4SM VV015 M19/M23 A3026 RMK AO1 SLP318
SPECI CYNL 010923Z AUTO ///// 1 3/4SM VV014 M19/M23 A3026 RMK AO1 SLP318
SPECI CYNL 010922Z AUTO ///// 2SM VV014 M19/M23 A3026 RMK AO1 SLP319
SPECI CYNL 010916Z AUTO ///// 1 1/2SM VV010 M19/M23 A3027 RMK AO1 SLP320
SPECI CYNL 010913Z AUTO ///// 1SM VV009 M19/M23 A3027 RMK AO1 SLP320
SPECI CYNL 010912Z AUTO ///// 3/4SM VV009 M19/M23 A3027 RMK AO1 SLP320
SPECI CYNL 010910Z AUTO ///// 5/8SM VV009 M19/M23 A3027 RMK AO1 SLP321
SPECI CYNL 010909Z AUTO ///// 5/8SM VV010 M19/M23 A3027 RMK AO1 SLP321
SPECI CYNL 010906Z AUTO ///// 3/4SM VV010 M19/M23 A3027 RMK AO1 SLP321
SPECI CYNL 010904Z AUTO ///// 1SM VV010 M19/M23 A3027 RMK AO1 SLP320
SPECI CYNL 010903Z AUTO ///// 1SM VV009 M19/M23 A3027 RMK AO1 SLP320
METAR CYNL 010900Z AUTO ///// 3/4SM VV009 M19/M23 A3027 RMK AO1 SLP321
SPECI CYNL 010858Z AUTO ///// 3/4SM VV009 M19/M23 A3027 RMK AO1 SLP320
SPECI CYNL 010849Z AUTO ///// 1SM VV010 M19/M23 A3027 RMK AO1 SLP318
SPECI CYNL 010846Z AUTO ///// 1SM VV009 M19/M23 A3027 RMK AO1 SLP319
SPECI CYNL 010841Z AUTO ///// 3/4SM VV008 M19/M23 A3027 RMK AO1 SLP319
SPECI CYNL 010839Z AUTO ///// 5/8SM VV008 M19/M23 A3027 RMK AO1 SLP319
SPECI CYNL 010838Z AUTO ///// 3/4SM VV008 M19/M23 A3027 RMK AO1 SLP319
METAR CYNL 010800Z AUTO ///// 3/8SM VV006 M19/M23 A3027 RMK AO1 SLP320
METAR CYNL 010700Z AUTO ///// 5/8SM VV008 M19/M22 A3026 RMK AO1 SLP317
SPECI CYNL 010650Z AUTO ///// 5/8SM VV008 M19/M22 A3027 RMK AO1 SLP319
SPECI CYNL 010649Z AUTO ///// 3/4SM VV007 M19/M22 A3027 RMK AO1 SLP319
METAR CYNL 010600Z AUTO ///// 3/8SM VV006 M19/M22 A3027 RMK AO1 SLP321
SPECI CYNL 010531Z AUTO ///// 1/4SM VV005 M18/M22 A3028 RMK AO1 SLP323
METAR CYNL 010500Z AUTO ///// 1/4SM VV004 M18/M21 A3028 RMK AO1 SLP325
SPECI CYNL 010458Z AUTO ///// 1/4SM VV004 M18/M21 A3029 RMK AO1 SLP327
SPECI CYNL 010456Z AUTO ///// 1/8SM VV004 M18/M21 A3029 RMK AO1 SLP327
SPECI CYNL 010448Z AUTO ///// 1/4SM VV004 M18/M21 A3029 RMK AO1 SLP329
SPECI CYNL 010445Z AUTO ///// 1/8SM VV004 M18/M21 A3029 RMK AO1 SLP330
SPECI CYNL 010432Z AUTO 03014KT 1/4SM VV004 M18/M21 A3030 RMK AO1 SLP331
SPECI CYNL 010427Z AUTO ///// 1/8SM VV004 M18/M21 A3030 RMK AO1 SLP332
SPECI CYNL 010421Z AUTO 05015G25KT 1/4SM VV004 M18/M21 A3030 RMK AO1 SLP333
SPECI CYNL 010420Z AUTO 05017G25KT 1/8SM VV004 M18/M21 A3030 RMK AO1 SLP333
SPECI CYNL 010415Z AUTO 03013G19KT 1/4SM VV004 M18/M21 A3030 RMK AO1 SLP333
METAR CYNL 010400Z AUTO 04015G22KT 1/4SM VV005 M17/M21 A3031 RMK AO1 SLP333
METAR CYNL 010300Z AUTO 03011G28KT 3/8SM VV006 M17/M20 A3031 RMK AO1 SLP334
METAR CYNL 010200Z AUTO 04013G24KT 3/8SM VV008 M16/M20 A3031 RMK AO1 SLP338
SPECI CYNL 010145Z AUTO 04014KT 1/2SM VV009 M16/M20 A3032 RMK AO1 SLP341
SPECI CYNL 010136Z AUTO 04012G21KT 5/8SM VV011 M16/M19 A3031 RMK AO1 SLP339
SPECI CYNL 010135Z AUTO 04012G23KT 3/4SM VV011 M16/M19 A3031 RMK AO1 SLP339
SPECI CYNL 010129Z AUTO 04015G23KT 1/2SM VV010 M16/M19 A3031 RMK AO1 SLP338
SPECI CYNL 010113Z AUTO ///// 1/2SM VV009 M16/M19 A3031 RMK AO1 SLP337
SPECI CYNL 010104Z AUTO 05016G23KT 1/2SM VV010 M16/M19 A3031 RMK AO1 SLP338
METAR CYNL 010100Z AUTO 05015G23KT 1/2SM VV008 M16/M19 A3031 RMK AO1 SLP338
SPECI CYNL 010020Z AUTO 06014G23KT 1/2SM VV009 M15/M19 A3031 RMK AO1 PRESRR SLP339
SPECI CYNL 010011Z AUTO 05015G23KT 5/8SM VV013 M15/M19 A3031 RMK AO1 PRESRR SLP338
SPECI CYNL 010010Z AUTO 05013G23KT 3/4SM VV013 M15/M19 A3031 RMK AO1 PRESRR SLP338
SPECI CYNL 010005Z AUTO 04014G23KT 5/8SM VV013 M15/M19 A3030 RMK AO1 PRESRR SLP337
SPECI CYNL 010004Z AUTO 05012G23KT 1SM VV013 M15/M19 A3030 RMK AO1 PRESRR SLP337
METAR CYNL 010000Z AUTO 05014G21KT 3/4SM VV014 M15/M19 A3030 RMK AO1 PRESRR SLP336
SPECI CYNL 312355Z AUTO 04012G21KT 1SM VV014 M15/M19 A3030 RMK AO1 SLP336
SPECI CYNL 312350Z AUTO ///// 1 1/4SM VV017 M15/M20 A3030 RMK AO1 SLP335
SPECI CYNL 312345Z AUTO 04017G23KT 1 1/2SM VV017 M15/M20 A3029 RMK AO1 SLP333
SPECI CYNL 312341Z AUTO 03018G24KT 1 1/4SM VV016 M15/M20 A3029 RMK AO1 SLP332
SPECI CYNL 312339Z AUTO 04016G24KT 1 3/4SM VV016 M15/M20 A3029 RMK AO1 SLP333
SPECI CYNL 312337Z AUTO 04014G26KT 2SM VV017 M15/M20 A3029 RMK AO1 SLP332
SPECI CYNL 312333Z AUTO 04017G26KT 1 1/2SM VV020 M15/M20 A3028 RMK AO1 SLP331
SPECI CYNL 312332Z AUTO 04018G26KT 1 1/4SM VV020 M15/M20 A3028 RMK AO1 SLP330
SPECI CYNL 312331Z AUTO 03019G26KT 1 1/2SM VV021 M15/M20 A3028 RMK AO1 SLP330
SPECI CYNL 312329Z AUTO 04021KT 1 1/4SM VV022 M15/M20 A3028 RMK AO1 SLP330
SPECI CYNL 312326Z AUTO 04019G25KT 1 3/4SM VV022 M15/M20 A3028 RMK AO1 SLP330
SPECI CYNL 312324Z AUTO 03018G25KT 2SM VV022 M15/M20 A3028 RMK AO1 SLP330
SPECI CYNL 312323Z AUTO 04018G25KT 1 3/4SM VV022 M15/M20 A3028 RMK AO1 SLP329
SPECI CYNL 312322Z AUTO 04020KT 1 3/4SM FEW022 SCT040 M15/M20 A3028 RMK AO1 SLP329
SPECI CYNL 312321Z AUTO 04019G25KT 2SM FEW021 SCT040 M15/M20 A3028 RMK AO1 SLP329
METAR CYNL 312300Z AUTO 03016G23KT 9SM FEW025 BKN040 M15/M20 A3028 RMK AO1 SLP328
SPECI CYNL 312207Z AUTO 04016G26KT 4SM OVC042 M14/M20 A3028 RMK AO1 SLP328
SPECI CYNL 312205Z AUTO 05020G26KT 2SM OVC042 M14/M20 A3028 RMK AO1 SLP328
SPECI CYNL 312204Z AUTO 05019G26KT 1 3/4SM OVC042 M14/M20 A3028 RMK AO1 SLP328
SPECI CYNL 312203Z AUTO 05018G24KT 2 1/2SM OVC042 M14/M20 A3028 RMK AO1 SLP328
METAR CYNL 312200Z AUTO 05016G24KT 5SM OVC042 M14/M20 A3028 RMK AO1 SLP327
SPECI CYNL 312127Z AUTO ///// 5SM OVC043 M14/M20 A3028 RMK AO1 SLP327
SPECI CYNL 312125Z AUTO ///// 2SM OVC043 M14/M20 A3028 RMK AO1 SLP328
SPECI CYNL 312119Z AUTO ///// 4SM OVC042 M14/M20 A3029 RMK AO1 SLP328
SPECI CYNL 312117Z AUTO ///// 2 1/2SM OVC042 M14/M20 A3029 RMK AO1 SLP328
METAR CYNL 312100Z AUTO ///// 6SM OVC042 M14/M20 A3029 RMK AO1 SLP328
SPECI CYNL 312018Z AUTO ///// 3SM FEW025 OVC041 M14/M20 A3030 RMK AO1 SLP332
SPECI CYNL 312016Z AUTO ///// 2 1/2SM FEW025 OVC041 M14/M20 A3030 RMK AO1 SLP332
METAR CYNL 312000Z AUTO ///// 9SM FEW025 SCT032 OVC042 M13/M20 A3030 RMK AO1 SLP331
SPECI CYNL 311906Z AUTO ///// 4SM FEW024 OVC042 M14/M20 A3030 RMK AO1 SLP333
SPECI CYNL 311904Z AUTO ///// 2 1/2SM FEW024 OVC042 M14/M20 A3030 RMK AO1 SLP333
METAR CYNL 311900Z AUTO ///// 9SM FEW024 OVC042 M14/M20 A3030 RMK AO1 SLP334
METAR CYNL 311800Z AUTO ///// 9SM OVC040 M15/M21 A3030 RMK AO1 SLP330
METAR CYNL 311700Z AUTO 05014G20KT 9SM OVC040 M16/M22 A3030 RMK AO1 SLP333
METAR CYNL 311600Z AUTO ///// 9SM OVC038 M18/M23 A3031 RMK AO1 PRESRR SLP338
METAR CYNL 311500Z AUTO ///// 9SM SCT037 M19/M24 A3029 RMK AO1 SLP330
METAR CYNL 311400Z AUTO ///// 9SM FEW039 M21/M25 A3030 RMK AO1 SLP337
METAR CYNL 311300Z AUTO 05010KT 9SM CLR M21/M25 A3031 RMK AO1 PRESRR SLP340
METAR CYNL 311200Z AUTO ///// 9SM CLR M22/M26 A3027 RMK AO1 PRESFR SLP327
METAR CYNL 311100Z AUTO ///// 9SM CLR M22/M25 A3029 RMK AO1 SLP332
METAR CYNL 311000Z AUTO ///// 9SM CLR M21/M25 A3028 RMK AO1 SLP328
METAR CYNL 310900Z AUTO ///// 9SM CLR M20/M24 A3028 RMK AO1 SLP326
METAR CYNL 310800Z AUTO 03008KT 9SM CLR M20/M23 A3027 RMK AO1 SLP322
METAR CYNL 310700Z AUTO 03008KT 9SM CLR M19/M23 A3027 RMK AO1 SLP319
METAR CYNL 310600Z AUTO ///// 9SM CLR M18/M23 A3026 RMK AO1 SLP318
METAR CYNL 310500Z AUTO ///// 9SM FEW018 SCT130 M18/M22 A3027 RMK AO1 SLP321
SPECI CYNL 310433Z AUTO ///// 7SM FEW007 SCT010 BKN074 M18/M22 A3027 RMK AO1 SLP320
SPECI CYNL 310428Z AUTO ///// 6SM VV008 M18/M22 A3027 RMK AO1 SLP320
SPECI CYNL 310423Z AUTO ///// 9SM FEW007 M18/M22 A3027 RMK AO1 SLP319
METAR CYNL 310400Z AUTO ///// 9SM FEW018 M17/M21 A3028 RMK AO1 SLP322
SPECI CYNL 310320Z AUTO ///// 9SM SCT007 M17/M21 A3026 RMK AO1 SLP316
SPECI CYNL 310319Z AUTO ///// 9SM SCT007 BKN018 M17/M21 A3026 RMK AO1 SLP316
SPECI CYNL 310315Z AUTO 04008KT 9SM SCT007 BKN010 M17/M20 A3026 RMK AO1 SLP317
SPECI CYNL 310314Z AUTO 04007KT 9SM BKN007 BKN018 M17/M20 A3026 RMK AO1 SLP317
SPECI CYNL 310313Z AUTO 05006KT 7SM SCT007 BKN010 BKN018 M17/M20 A3026 RMK AO1 SLP317
SPECI CYNL 310310Z AUTO 04007KT 3SM VV011 M17/M20 A3026 RMK AO1 SLP316
SPECI CYNL 310306Z AUTO 04006KT 2 1/2SM VV010 M17/M20 A3026 RMK AO1 SLP316
METAR CYNL 310300Z AUTO ///// 4SM VV007 M17/M20 A3026 RMK AO1 SLP316
SPECI CYNL 310249Z AUTO ///// 3SM VV009 M17/M20 A3026 RMK AO1 SLP317
SPECI CYNL 310241Z AUTO ///// 2SM VV010 M16/M20 A3027 RMK AO1 SLP318
SPECI CYNL 310222Z AUTO ///// 1 3/4SM VV013 M16/M20 A3027 RMK AO1 SLP317
SPECI CYNL 310221Z AUTO ///// 2SM VV012 M16/M20 A3027 RMK AO1 SLP317
SPECI CYNL 310219Z AUTO ///// 1 3/4SM VV012 M16/M20 A3027 RMK AO1 SLP318
SPECI CYNL 310211Z AUTO ///// 2 1/2SM VV014 M16/M20 A3027 RMK AO1 SLP318
SPECI CYNL 310209Z AUTO ///// 2 1/2SM VV015 M16/M20 A3027 RMK AO1 SLP319
METAR CYNL 310200Z AUTO ///// 4SM VV016 M16/M20 A3027 RMK AO1 SLP321
SPECI CYNL 310159Z AUTO ///// 4SM VV015 M16/M20 A3027 RMK AO1 SLP321
SPECI CYNL 310142Z AUTO ///// 3SM VV013 M16/M20 A3027 RMK AO1 SLP318
SPECI CYNL 310141Z AUTO ///// 2 1/2SM VV013 M16/M20 A3027 RMK AO1 SLP318
SPECI CYNL 310139Z AUTO ///// 3SM VV013 M16/M20 A3027 RMK AO1 SLP318
SPECI CYNL 310133Z AUTO ///// 2 1/2SM VV014 M16/M20 A3027 RMK AO1 SLP318
SPECI CYNL 310131Z AUTO ///// 2 1/2SM VV015 M16/M20 A3026 RMK AO1 SLP318
SPECI CYNL 310122Z AUTO ///// 3SM VV017 M16/M20 A3027 RMK AO1 SLP318
SPECI CYNL 310121Z AUTO ///// 2 1/2SM VV017 M16/M20 A3027 RMK AO1 SLP318
SPECI CYNL 310102Z AUTO ///// 3SM VV017 M16/M19 A3027 RMK AO1 SLP318
METAR CYNL 310100Z AUTO ///// 2 1/2SM VV016 M16/M19 A3027 RMK AO1 SLP318
SPECI CYNL 310059Z AUTO ///// 2SM VV015 M16/M19 A3027 RMK AO1 SLP318
SPECI CYNL 310057Z AUTO ///// 2 1/2SM VV014 M16/M20 A3027 RMK AO1 SLP319
SPECI CYNL 310056Z AUTO ///// 3SM VV013 M16/M20 A3027 RMK AO1 SLP319
SPECI CYNL 310049Z AUTO ///// 2SM VV014 M16/M20 A3026 RMK AO1 SLP318
SPECI CYNL 310046Z AUTO ///// 2 1/2SM VV016 M16/M20 A3026 RMK AO1 SLP317
SPECI CYNL 310026Z AUTO 07009G16KT 3SM VV016 M16/M20 A3027 RMK AO1 SLP318
SPECI CYNL 310024Z AUTO 07011KT 2 1/2SM VV015 M16/M20 A3027 RMK AO1 SLP318
SPECI CYNL 310023Z AUTO 07011KT 3SM VV015 M16/M20 A3027 RMK AO1 SLP318
SPECI CYNL 310015Z AUTO ///// 6SM FEW008 SCT060 M15/M20 A3027 RMK AO1 SLP318
METAR CYNL 310000Z AUTO 07010G15KT 9SM BKN060 M15/M20 A3026 RMK AO1 SLP316
SPECI CYNL 302312Z AUTO 06011G17KT 7SM FEW009 M15/M20 A3025 RMK AO1 PRESRR SLP312
METAR CYNL 302300Z AUTO 07010G16KT 9SM FEW011 SCT019 M15/M20 A3025 RMK AO1 PRESRR SLP312
SPECI CYNL 302259Z AUTO 08010G16KT 9SM FEW011 SCT019 BKN200 M15/M20 A3025 RMK AO1 PRESRR SLP311
SPECI CYNL 302258Z AUTO 07010G16KT 8SM FEW008 BKN019 M15/M20 A3025 RMK AO1 PRESRR SLP311
SPECI CYNL 302257Z AUTO 06010G16KT 9SM FEW012 SCT019 BKN200 M15/M20 A3025 RMK AO1 SLP311
SPECI CYNL 302249Z AUTO 07011KT 6SM FEW008 SCT013 BKN018 M15/M20 A3025 RMK AO1 SLP310
SPECI CYNL 302242Z AUTO ///// 6SM VV015 M15/M20 A3024 RMK AO1 SLP309
SPECI CYNL 302241Z AUTO ///// 5SM VV014 M15/M20 A3024 RMK AO1 SLP309
SPECI CYNL 302230Z AUTO ///// 7SM VV015 M15/M20 A3024 RMK AO1 SLP307
SPECI CYNL 302228Z AUTO ///// 9SM VV014 M15/M20 A3024 RMK AO1 SLP306
SPECI CYNL 302223Z AUTO ///// 9SM FEW007 M15/M20 A3024 RMK AO1 SLP307
METAR CYNL 302200Z AUTO ///// 9SM FEW021 SCT200 M14/M20 A3022 RMK AO1 SLP302
METAR CYNL 302100Z AUTO ///// 9SM FEW019 SCT170 M15/M20 A3021 RMK AO1 SLP297
SPECI CYNL 302021Z AUTO ///// 9SM FEW007 SCT076 M15/M20 A3022 RMK AO1 SLP300
SPECI CYNL 302006Z AUTO ///// 8SM SCT019 BKN076 M15/M20 A3022 RMK AO1 SLP302
METAR CYNL 302000Z AUTO ///// 7SM BKN019 BKN041 M15/M20 A3023 RMK AO1 SLP303
SPECI CYNL 301950Z AUTO ///// 7SM BKN019 BKN170 M15/M20 A3023 RMK AO1 SLP303
SPECI CYNL 301949Z AUTO ///// 2SM BKN019 BKN041 M15/M20 A3022 RMK AO1 SLP303
SPECI CYNL 301947Z AUTO ///// 5/8SM BKN019 BKN041 M15/M20 A3023 RMK AO1 SLP303
SPECI CYNL 301946Z AUTO ///// 2SM BKN019 BKN041 M15/M20 A3023 RMK AO1 SLP303
SPECI CYNL 301920Z AUTO ///// 9SM BKN018 BKN180 M15/M20 A3022 RMK AO1 SLP302
METAR CYNL 301900Z AUTO ///// 9SM FEW017 BKN078 M15/M20 A3022 RMK AO1 SLP301
SPECI CYNL 301813Z AUTO ///// 6SM FEW016 BKN078 BKN190 M15/M20 A3022 RMK AO1 SLP301
SPECI CYNL 301812Z AUTO ///// 2SM FEW016 BKN078 BKN190 M15/M20 A3022 RMK AO1 SLP301
SPECI CYNL 301810Z AUTO ///// 1 1/2SM FEW016 BKN078 BKN190 M15/M20 A3022 RMK AO1 SLP301
METAR CYNL 301800Z AUTO ///// 9SM FEW016 BKN078 BKN180 M15/M20 A3022 RMK AO1 SLP302
SPECI CYNL 301758Z AUTO ///// 1 1/2SM FEW016 BKN078 BKN180 M15/M20 A3022 RMK AO1 SLP301
SPECI CYNL 301757Z AUTO ///// 2SM SCT016 BKN078 BKN180 M15/M20 A3022 RMK AO1 SLP301
SPECI CYNL 301751Z AUTO ///// 9SM SCT016 BKN078 BKN180 M15/M20 A3022 RMK AO1 SLP301
SPECI CYNL 301721Z AUTO ///// 9SM BKN016 OVC082 M15/M20 A3023 RMK AO1 SLP302
SPECI CYNL 301718Z AUTO ///// 1 1/4SM BKN016 OVC082 M15/M20 A3023 RMK AO1 SLP302
SPECI CYNL 301702Z AUTO ///// 9SM BKN015 BKN082 M15/M20 A3022 RMK AO1 SLP300
METAR CYNL 301700Z AUTO ///// 9SM SCT015 BKN082 M15/M20 A3022 RMK AO1 SLP300
SPECI CYNL 301614Z AUTO ///// 9SM SCT015 BKN082 M16/M20 A3022 RMK AO1 SLP302
SPECI CYNL 301610Z AUTO ///// 9SM BKN015 M16/M20 A3022 RMK AO1 SLP302
METAR CYNL 301600Z AUTO ///// 9SM FEW015 SCT084 M16/M20 A3022 RMK AO1 SLP301
METAR CYNL 301500Z AUTO 08010KT 9SM FEW086 M16/M20 A3023 RMK AO1 SLP304
METAR CYNL 301400Z AUTO ///// 9SM FEW094 M17/M20 A3023 RMK AO1 SLP307
METAR CYNL 301300Z AUTO ///// 9SM BKN100 M17/M20 A3023 RMK AO1 SLP306
SPECI CYNL 301206Z AUTO ///// 9SM SCT006 OVC110 M17/M20 A3022 RMK AO1 SLP305
METAR CYNL 301200Z AUTO ///// 9SM BKN007 OVC110 M17/M20 A3023 RMK AO1 SLP305
SPECI CYNL 301121Z AUTO ///// 4SM VV009 M17/M20 A3021 RMK AO1 SLP300
SPECI CYNL 301116Z AUTO ///// 3SM VV011 M17/M20 A3022 RMK AO1 SLP302
SPECI CYNL 301107Z AUTO ///// 2 1/2SM VV013 M17/M20 A3022 RMK AO1 SLP303
METAR CYNL 301100Z AUTO ///// 3SM VV011 M17/M20 A3022 RMK AO1 SLP302
SPECI CYNL 301044Z AUTO ///// 4SM VV010 M17/M20 A3022 RMK AO1 SLP300
SPECI CYNL 301034Z AUTO ///// 4SM VV009 M17/M20 A3022 RMK AO1 SLP301
SPECI CYNL 301026Z AUTO ///// 4SM VV010 M17/M20 A3022 RMK AO1 SLP300
SPECI CYNL 301018Z AUTO ///// 3SM VV007 M17/M20 A3022 RMK AO1 SLP300
SPECI CYNL 301005Z AUTO ///// 2SM VV009 M17/M20 A3022 RMK AO1 SLP301
SPECI CYNL 301002Z AUTO ///// 2SM VV011 M17/M20 A3022 RMK AO1 SLP302
METAR CYNL 301000Z AUTO ///// 1 1/2SM VV011 M17/M20 A3022 RMK AO1 SLP301
SPECI CYNL 300955Z AUTO ///// 1 3/4SM VV011 M17/M20 A3022 RMK AO1 SLP301
SPECI CYNL 300951Z AUTO ///// 2 1/2SM VV012 M17/M20 A3021 RMK AO1 SLP300
SPECI CYNL 300934Z AUTO ///// 3SM VV013 M17/M20 A3022 RMK AO1 SLP302
SPECI CYNL 300929Z AUTO ///// 2SM VV011 M17/M20 A3022 RMK AO1 SLP302
SPECI CYNL 300916Z AUTO ///// 1 3/4SM VV014 M17/M20 A3022 RMK AO1 SLP303
SPECI CYNL 300913Z AUTO ///// 2SM VV014 M17/M20 A3022 RMK AO1 SLP302
SPECI CYNL 300905Z AUTO ///// 2SM VV015 M17/M20 A3022 RMK AO1 SLP301
SPECI CYNL 300904Z AUTO ///// 2SM VV014 M17/M20 A3022 RMK AO1 SLP301
METAR CYNL 300900Z AUTO ///// 1 1/2SM VV012 M17/M20 A3022 RMK AO1 SLP303
SPECI CYNL 300859Z AUTO ///// 1 1/2SM VV012 M17/M20 A3022 RMK AO1 SLP304
SPECI CYNL 300854Z AUTO ///// 1SM VV010 M17/M20 A3023 RMK AO1 SLP305
SPECI CYNL 300851Z AUTO 08009KT 1SM VV009 M17/M20 A3022 RMK AO1 SLP304
SPECI CYNL 300848Z AUTO ///// 3/4SM VV008 M17/M20 A3022 RMK AO1 SLP303
SPECI CYNL 300833Z AUTO ///// 1/2SM VV009 M17/M20 A3022 RMK AO1 SLP305
SPECI CYNL 300832Z AUTO ///// 5/8SM VV010 M17/M20 A3023 RMK AO1 SLP305
SPECI CYNL 300831Z AUTO ///// 3/4SM VV011 M17/M20 A3023 RMK AO1 SLP306
SPECI CYNL 300829Z AUTO ///// 1SM VV014 M17/M20 A3023 RMK AO1 SLP306
SPECI CYNL 300827Z AUTO ///// 1 1/4SM VV017 M17/M20 A3023 RMK AO1 SLP305
SPECI CYNL 300825Z AUTO ///// 1 3/4SM VV020 M17/M20 A3023 RMK AO1 SLP305
SPECI CYNL 300823Z AUTO ///// 2 1/2SM VV024 M17/M20 A3023 RMK AO1 SLP305
SPECI CYNL 300819Z AUTO ///// 4SM VV029 M17/M20 A3022 RMK AO1 SLP304
SPECI CYNL 300814Z AUTO ///// 3SM VV030 M17/M20 A3022 RMK AO1 SLP304
SPECI CYNL 300811Z AUTO ///// 2SM VV025 M17/M20 A3022 RMK AO1 SLP304
SPECI CYNL 300804Z AUTO ///// 1 1/2SM VV015 M17/M20 A3022 RMK AO1 SLP304
SPECI CYNL 300802Z AUTO ///// 1 1/2SM VV014 M17/M20 A3022 RMK AO1 SLP304
METAR CYNL 300800Z AUTO ///// 1 1/4SM VV013 M17/M20 A3022 RMK AO1 SLP304
SPECI CYNL 300754Z AUTO ///// 1 1/4SM VV014 M17/M20 A3023 RMK AO1 SLP306
SPECI CYNL 300751Z AUTO ///// 1 1/4SM VV016 M17/M20 A3022 RMK AO1 SLP304
SPECI CYNL 300745Z AUTO ///// 1 3/4SM VV019 M17/M20 A3022 RMK AO1 SLP304
SPECI CYNL 300734Z AUTO ///// 2 1/2SM VV022 M17/M20 A3022 RMK AO1 SLP304
SPECI CYNL 300731Z AUTO ///// 6SM VV024 M17/M20 A3022 RMK AO1 SLP305
SPECI CYNL 300726Z AUTO ///// 6SM VV028 M17/M20 A3023 RMK AO1 SLP306
SPECI CYNL 300714Z AUTO ///// 7SM VV031 M17/M20 A3022 RMK AO1 SLP303
SPECI CYNL 300712Z AUTO ///// 6SM VV025 M17/M20 A3022 RMK AO1 SLP303
SPECI CYNL 300709Z AUTO ///// 7SM VV016 M17/M20 A3022 RMK AO1 SLP303
METAR CYNL 300700Z AUTO ///// 4SM VV011 M16/M20 A3022 RMK AO1 SLP302
SPECI CYNL 300658Z AUTO ///// 3SM VV011 M16/M20 A3022 RMK AO1 SLP304
SPECI CYNL 300655Z AUTO ///// 2SM VV010 M16/M20 A3022 RMK AO1 SLP304
SPECI CYNL 300654Z AUTO ///// 2SM VV009 M16/M20 A3022 RMK AO1 SLP303
SPECI CYNL 300650Z AUTO ///// 1 1/2SM VV008 M16/M19 A3022 RMK AO1 SLP304
SPECI CYNL 300644Z AUTO ///// 1SM VV007 M16/M19 A3022 RMK AO1 SLP303
SPECI CYNL 300631Z AUTO ///// 3/4SM VV009 M16/M19 A3021 RMK AO1 SLP301
SPECI CYNL 300630Z AUTO ///// 1SM VV009 M16/M19 A3021 RMK AO1 SLP301
SPECI CYNL 300623Z AUTO ///// 1 1/4SM VV012 M16/M19 A3020 RMK AO1 SLP297
SPECI CYNL 300602Z AUTO ///// 1 1/2SM VV010 M16/M19 A3020 RMK AO1 SLP298
METAR CYNL 300600Z AUTO ///// 1 1/4SM VV010 M16/M19 A3020 RMK AO1 SLP298
SPECI CYNL 300559Z AUTO ///// 1 1/4SM VV010 M16/M19 A3020 RMK AO1 SLP298
SPECI CYNL 300545Z AUTO ///// 1SM VV008 M16/M19 A3020 RMK AO1 SLP297
SPECI CYNL 300542Z AUTO ///// 3/4SM VV008 M16/M19 A3020 RMK AO1 SLP298
SPECI CYNL 300541Z AUTO ///// 1SM VV009 M16/M19 A3020 RMK AO1 SLP298
SPECI CYNL 300538Z AUTO ///// 1 1/4SM VV011 M16/M19 A3020 RMK AO1 SLP298
SPECI CYNL 300534Z AUTO ///// 1 3/4SM VV013 M16/M19 A3020 RMK AO1 SLP297
SPECI CYNL 300507Z AUTO ///// 2SM VV011 M16/M19 A3020 RMK AO1 SLP299
SPECI CYNL 300503Z AUTO ///// 1 1/2SM VV010 M16/M19 A3020 RMK AO1 SLP298
SPECI CYNL 300501Z AUTO ///// 1 1/4SM VV010 M16/M19 A3020 RMK AO1 SLP298
METAR CYNL 300500Z AUTO ///// 1 1/4SM VV009 M16/M19 A3020 RMK AO1 SLP298
SPECI CYNL 300438Z AUTO ///// 1SM VV008 M16/M19 A3021 RMK AO1 SLP301
SPECI CYNL 300431Z AUTO ///// 3/4SM VV008 M16/M19 A3021 RMK AO1 SLP300
SPECI CYNL 300415Z AUTO ///// 1SM VV007 M16/M19 A3021 RMK AO1 SLP300
SPECI CYNL 300414Z AUTO ///// 3/4SM VV007 M16/M19 A3021 RMK AO1 SLP300
SPECI CYNL 300413Z AUTO ///// 1SM VV007 M16/M19 A3021 RMK AO1 SLP300
METAR CYNL 300400Z AUTO ///// 3/4SM VV008 M16/M19 A3021 RMK AO1 SLP300
SPECI CYNL 300357Z AUTO ///// 3/4SM VV008 M16/M19 A3021 RMK AO1 SLP302
SPECI CYNL 300351Z AUTO ///// 1SM VV008 M16/M19 A3020 RMK AO1 SLP301
SPECI CYNL 300328Z AUTO ///// 3/4SM VV008 M16/M19 A3021 RMK AO1 SLP302
SPECI CYNL 300308Z AUTO ///// 1SM VV008 M16/M19 A3021 RMK AO1 SLP302
SPECI CYNL 300302Z AUTO ///// 3/4SM VV009 M16/M19 A3020 RMK AO1 SLP302
SPECI CYNL 300301Z AUTO ///// 3/4SM VV010 M16/M19 A3020 RMK AO1 SLP302
METAR CYNL 300300Z AUTO ///// 1SM VV010 M16/M19 A3020 RMK AO1 SLP302
SPECI CYNL 300226Z AUTO ///// 1 1/4SM VV014 M16/M19 A3020 RMK AO1 SLP304
SPECI CYNL 300225Z AUTO ///// 1 1/4SM VV015 M16/M19 A3020 RMK AO1 SLP304
SPECI CYNL 300217Z AUTO ///// 1 1/2SM VV015 M16/M19 A3021 RMK AO1 SLP305
SPECI CYNL 300207Z AUTO ///// 1 1/2SM VV012 M16/M19 A3020 RMK AO1 SLP304
METAR CYNL 300200Z AUTO ///// 1 1/4SM VV011 M16/M19 A3021 RMK AO1 SLP306
SPECI CYNL 300135Z AUTO ///// 1 1/4SM VV013 M16/M20 A3021 RMK AO1 SLP309
SPECI CYNL 300132Z AUTO ///// 1 1/2SM VV014 M16/M20 A3021 RMK AO1 SLP309
SPECI CYNL 300131Z AUTO ///// 1 1/4SM VV014 M16/M20 A3021 RMK AO1 SLP310
SPECI CYNL 300123Z AUTO ///// 1 1/2SM VV015 M16/M20 A3021 RMK AO1 SLP310
SPECI CYNL 300116Z AUTO ///// 1 3/4SM VV014 M16/M20 A3021 RMK AO1 SLP309
SPECI CYNL 300106Z AUTO ///// 2 1/2SM VV016 M16/M20 A3021 RMK AO1 SLP310
METAR CYNL 300100Z AUTO ///// 3SM VV016 M16/M20 A3022 RMK AO1 SLP310
SPECI CYNL 300059Z AUTO ///// 3SM VV015 M16/M20 A3021 RMK AO1 SLP312
SPECI CYNL 300045Z AUTO ///// 4SM VV010 M16/M20 A3021 RMK AO1 SLP314
SPECI CYNL 300041Z AUTO ///// 4SM SCT008 BKN009 M16/M21 A3021 RMK AO1 SLP313
SPECI CYNL 300037Z AUTO ///// 5SM SCT007 BKN013 M16/M21 A3021 RMK AO1 SLP313
SPECI CYNL 300036Z AUTO ///// 5SM BKN008 M16/M21 A3021 RMK AO1 SLP313
SPECI CYNL 300033Z AUTO ///// 5SM SCT008 BKN011 BKN240 M16/M21 A3021 RMK AO1 SLP312
SPECI CYNL 300028Z AUTO ///// 4SM VV009 M16/M21 A3021 RMK AO1 SLP312
SPECI CYNL 300023Z AUTO ///// 4SM VV010 M16/M21 A3021 RMK AO1 SLP311
SPECI CYNL 300012Z AUTO ///// 4SM VV009 M16/M21 A3021 RMK AO1 SLP311
SPECI CYNL 300003Z AUTO ///// 3SM VV014 M16/M21 A3021 RMK AO1 SLP312
METAR CYNL 300000Z AUTO ///// 4SM VV018 M16/M21 A3021 RMK AO1 SLP313
SPECI CYNL 292358Z AUTO ///// 4SM VV019 M16/M21 A3021 RMK AO1 SLP314
SPECI CYNL 292346Z AUTO 09012KT 4SM FEW007 M16/M21 A3021 RMK AO1 SLP314
SPECI CYNL 292309Z AUTO ///// 9SM FEW011 SCT029 M16/M22 A3021 RMK AO1 SLP312
SPECI CYNL 292306Z AUTO 09013KT 8SM VV013 M16/M22 A3021 RMK AO1 SLP312
METAR CYNL 292300Z AUTO ///// 9SM CLR M16/M22 A3021 RMK AO1 SLP312
METAR CYNL 292200Z AUTO ///// 9SM FEW160 M16/M22 A3021 RMK AO1 SLP320
METAR CYNL 292100Z AUTO ///// 9SM FEW200 M17/M22 A3022 RMK AO1 SLP323
METAR CYNL 292000Z AUTO ///// 9SM FEW008 SCT170 M17/M23 A3024 RMK AO1 SLP329
SPECI CYNL 291952Z AUTO ///// 7SM SCT008 BKN170 M17/M23 A3024 RMK AO1 SLP330
SPECI CYNL 291951Z AUTO ///// 6SM SCT008 BKN019 M17/M23 A3024 RMK AO1 SLP330
SPECI CYNL 291950Z AUTO ///// 6SM SCT008 BKN012 M17/M23 A3024 RMK AO1 SLP329
SPECI CYNL 291931Z AUTO ///// 5SM VV008 M17/M23 A3024 RMK AO1 SLP330
SPECI CYNL 291902Z AUTO ///// 3SM VV014 M18/M23 A3024 RMK AO1 SLP329
SPECI CYNL 291901Z AUTO ///// 3SM VV015 M18/M23 A3024 RMK AO1 SLP329
METAR CYNL 291900Z AUTO ///// 2 1/2SM VV015 M18/M23 A3024 RMK AO1 SLP329
SPECI CYNL 291854Z AUTO ///// 3SM VV015 M18/M23 A3023 RMK AO1 SLP325
SPECI CYNL 291851Z AUTO ///// 3SM VV013 M18/M23 A3023 RMK AO1 SLP324
SPECI CYNL 291850Z AUTO ///// 3SM VV015 M18/M23 A3023 RMK AO1 SLP324
SPECI CYNL 291849Z AUTO ///// 2 1/2SM VV016 M18/M23 A3023 RMK AO1 SLP324
SPECI CYNL 291844Z AUTO ///// 4SM VV016 M18/M23 A3024 RMK AO1 SLP326
SPECI CYNL 291840Z AUTO ///// 5SM VV010 M18/M23 A3024 RMK AO1 SLP326
SPECI CYNL 291836Z AUTO ///// 4SM VV009 M18/M23 A3024 RMK AO1 SLP327
SPECI CYNL 291829Z AUTO 09005KT 3SM VV010 M18/M23 A3024 RMK AO1 SLP327
SPECI CYNL 291828Z AUTO ///// 2 1/2SM VV010 M18/M23 A3024 RMK AO1 SLP327
SPECI CYNL 291826Z AUTO ///// 2 1/2SM VV009 M18/M23 A3024 RMK AO1 SLP327
SPECI CYNL 291822Z AUTO 10006KT 2 1/2SM VV011 M17/M23 A3024 RMK AO1 SLP326
SPECI CYNL 291814Z AUTO ///// 3SM VV011 M18/M23 A3024 RMK AO1 SLP328
METAR CYNL 291800Z AUTO ///// 4SM VV007 M18/M23 A3024 RMK AO1 SLP328
SPECI CYNL 291757Z AUTO 09007KT 4SM VV008 M18/M23 A3024 RMK AO1 SLP325
SPECI CYNL 291743Z AUTO ///// 6SM FEW007 SCT009 BKN180 M18/M24 A3024 RMK AO1 SLP324
SPECI CYNL 291741Z AUTO ///// 6SM FEW007 SCT009 BKN011 M19/M24 A3024 RMK AO1 SLP325
SPECI CYNL 291709Z AUTO 12007KT 4SM VV008 M19/M24 A3025 RMK AO1 SLP330
SPECI CYNL 291707Z AUTO 13008KT 4SM VV010 M19/M25 A3025 RMK AO1 SLP330
METAR CYNL 291700Z AUTO 13009KT 5SM FEW150 SCT190 M19/M25 A3025 RMK AO1 SLP330
METAR CYNL 291600Z AUTO 14008KT 9SM FEW150 M20/M25 A3025 RMK AO1 SLP329
METAR CYNL 291500Z AUTO 11005KT 9SM CLR M22/M26 A3025 RMK AO1 SLP331
METAR CYNL 291400Z AUTO ///// 9SM CLR M24/M28 A3025 RMK AO1 SLP330
METAR CYNL 291300Z AUTO ///// 9SM CLR M27/M30 A3024 RMK AO1 SLP329
METAR CYNL 291200Z AUTO ///// 9SM CLR M28/M31 A3022 RMK AO1 SLP322
METAR CYNL 291100Z AUTO 05004KT 9SM CLR M32/M37 A3022 RMK AO1 SLP325
METAR CYNL 291000Z AUTO ///// 9SM CLR M31/M36 A3022 RMK AO1 SLP324
METAR CYNL 290900Z AUTO 00000KT 9SM CLR M32/M36 A3021 RMK AO1 PRESRR SLP321
METAR CYNL 290800Z AUTO 00000KT 9SM CLR M31/M35 A3019 RMK AO1 PRESRR SLP313
METAR CYNL 290700Z AUTO ///// 9SM CLR M29/M32 A3016 RMK AO1 SLP300
METAR CYNL 290600Z AUTO 00000KT 9SM CLR M27/M31 A3016 RMK AO1 PRESRR SLP296
METAR CYNL 290500Z AUTO ///// 9SM CLR M25/M28 A3013 RMK AO1 SLP282
METAR CYNL 290400Z AUTO ///// 9SM CLR M24/M27 A3011 RMK AO1 SLP275
METAR CYNL 290300Z AUTO ///// 9SM CLR M23/M27 A3010 RMK AO1 PRESRR SLP271
METAR CYNL 290200Z AUTO ///// 9SM CLR M21/M26 A3007 RMK AO1 SLP262
METAR CYNL 290100Z AUTO 33006KT 9SM CLR M19/M25 A3006 RMK AO1 PRESRR SLP255
METAR CYNL 290000Z AUTO ///// 9SM CLR M17/M24 A3002 RMK AO1 PRESRR SLP240
METAR CYNL 282300Z AUTO ///// 5SM FEW007 SCT013 M17/M23 A2999 RMK AO1 PRESRR SLP229
SPECI CYNL 282252Z AUTO ///// 7SM FEW006 SCT012 M17/M23 A2999 RMK AO1 PRESRR SLP227
SPECI CYNL 282249Z AUTO ///// 3SM VV011 M17/M23 A2998 RMK AO1 PRESRR SLP226
SPECI CYNL 282247Z AUTO ///// 2 1/2SM FEW006 SCT017 M17/M23 A2998 RMK AO1 PRESRR SLP226
SPECI CYNL 282235Z AUTO ///// 4SM FEW005 SCT017 M17/M23 A2998 RMK AO1 PRESRR SLP224
SPECI CYNL 282228Z AUTO ///// 9SM FEW010 SCT018 M17/M24 A2997 RMK AO1 PRESRR SLP222
SPECI CYNL 282221Z AUTO ///// 9SM FEW010 SCT014 BKN025 M16/M23 A2997 RMK AO1 PRESRR SLP220
SPECI CYNL 282209Z AUTO ///// 9SM FEW008 BKN016 M16/M23 A2996 RMK AO1 PRESRR SLP218
SPECI CYNL 282203Z AUTO ///// 3SM VV014 M17/M23 A2996 RMK AO1 PRESRR SLP217
METAR CYNL 282200Z AUTO ///// 4SM FEW012 SCT016 BKN021 M17/M23 A2996 RMK AO1 PRESRR SLP216
SPECI CYNL 282158Z AUTO ///// 5SM FEW012 SCT016 BKN023 M17/M23 A2995 RMK AO1 PRESRR SLP215
SPECI CYNL 282155Z AUTO ///// 6SM SCT016 M17/M23 A2995 RMK AO1 PRESRR SLP214
SPECI CYNL 282154Z AUTO ///// 4SM SCT016 BKN028 M17/M23 A2995 RMK AO1 PRESRR SLP214
SPECI CYNL 282151Z AUTO ///// 3SM FEW012 SCT016 BKN021 M17/M23 A2995 RMK AO1 PRESRR SLP213
SPECI CYNL 282150Z AUTO ///// 3SM FEW012 SCT016 BKN028 M17/M23 A2995 RMK AO1 PRESRR SLP213
SPECI CYNL 282147Z AUTO ///// 8SM FEW009 SCT016 M17/M23 A2995 RMK AO1 PRESRR SLP212
SPECI CYNL 282145Z AUTO ///// 4SM FEW007 SCT015 BKN028 M17/M23 A2994 RMK AO1 PRESRR SLP212
SPECI CYNL 282135Z AUTO ///// 7SM FEW011 SCT018 BKN028 M17/M24 A2994 RMK AO1 PRESRR SLP210
SPECI CYNL 282127Z AUTO ///// 9SM FEW010 SCT018 BKN170 M17/M24 A2993 RMK AO1 PRESRR SLP207
SPECI CYNL 282121Z AUTO ///// 7SM SCT014 BKN029 M17/M23 A2993 RMK AO1 PRESRR SLP206
SPECI CYNL 282120Z AUTO ///// 8SM SCT014 BKN170 M17/M23 A2993 RMK AO1 PRESRR SLP205
SPECI CYNL 282116Z AUTO ///// 9SM FEW009 SCT017 BKN029 M17/M24 A2992 RMK AO1 PRESRR SLP204
SPECI CYNL 282114Z AUTO ///// 9SM FEW009 SCT017 BKN031 M17/M24 A2992 RMK AO1 PRESRR SLP204
SPECI CYNL 282111Z AUTO ///// 3SM FEW009 SCT015 BKN022 M17/M24 A2992 RMK AO1 PRESRR SLP204
SPECI CYNL 282110Z AUTO ///// 2 1/2SM FEW007 SCT013 BKN018 M17/M24 A2992 RMK AO1 PRESRR SLP204
SPECI CYNL 282104Z AUTO ///// 9SM FEW007 SCT012 BKN017 M17/M24 A2992 RMK AO1 PRESRR SLP202
SPECI CYNL 282102Z AUTO ///// 5SM FEW007 BKN012 BKN017 M17/M24 A2991 RMK AO1 PRESRR SLP201
SPECI CYNL 282101Z AUTO ///// 2 1/2SM VV014 M17/M23 A2991 RMK AO1 PRESRR SLP201
METAR CYNL 282100Z AUTO ///// 1 3/4SM VV014 M17/M23 A2991 RMK AO1 PRESRR SLP200
SPECI CYNL 282059Z AUTO ///// 1 3/4SM VV013 M17/M23 A2991 RMK AO1 PRESRR SLP199
SPECI CYNL 282057Z AUTO 32014G25KT 2SM VV013 M17/M23 A2991 RMK AO1 PRESRR SLP198
SPECI CYNL 282055Z AUTO ///// 1 1/2SM VV013 M16/M23 A2990 RMK AO1 PRESRR SLP197
SPECI CYNL 282053Z AUTO ///// 1 1/4SM VV011 M17/M23 A2990 RMK AO1 PRESRR SLP196
SPECI CYNL 282052Z AUTO ///// 1 3/4SM VV010 M17/M23 A2990 RMK AO1 PRESRR SLP196
SPECI CYNL 282051Z AUTO ///// 2SM VV010 M17/M23 A2990 RMK AO1 PRESRR SLP196
SPECI CYNL 282050Z AUTO ///// 3SM VV010 M17/M23 A2989 RMK AO1 PRESRR SLP195
SPECI CYNL 282049Z AUTO ///// 2SM VV011 M17/M23 A2989 RMK AO1 PRESRR SLP195
SPECI CYNL 282047Z AUTO ///// 1 1/2SM VV010 M17/M22 A2990 RMK AO1 PRESRR SLP195
SPECI CYNL 282045Z AUTO ///// 1SM VV012 M17/M22 A2989 RMK AO1 PRESRR SLP194
SPECI CYNL 282043Z AUTO ///// 3/4SM VV013 M17/M22 A2989 RMK AO1 PRESRR SLP193
SPECI CYNL 282038Z AUTO ///// 1SM VV012 M17/M22 A2989 RMK AO1 PRESRR SLP192
SPECI CYNL 282037Z AUTO ///// 1 1/2SM VV012 M17/M22 A2989 RMK AO1 PRESRR SLP192
SPECI CYNL 282036Z AUTO ///// 2SM VV012 M17/M22 A2989 RMK AO1 PRESRR SLP191
SPECI CYNL 282035Z AUTO ///// 1 1/2SM VV012 M17/M22 A2989 RMK AO1 PRESRR SLP191
SPECI CYNL 282034Z AUTO ///// 1SM VV011 M17/M22 A2988 RMK AO1 PRESRR SLP191
SPECI CYNL 282033Z AUTO ///// 3/4SM VV011 M17/M22 A2988 RMK AO1 PRESRR SLP190
SPECI CYNL 282030Z AUTO ///// 5/8SM VV012 M17/M22 A2988 RMK AO1 PRESRR SLP189
SPECI CYNL 282029Z AUTO ///// 3/4SM VV012 M17/M22 A2988 RMK AO1 PRESRR SLP188
SPECI CYNL 282026Z AUTO ///// 1 1/4SM VV011 M17/M22 A2988 RMK AO1 PRESRR SLP188
SPECI CYNL 282025Z AUTO ///// 2SM VV010 M17/M22 A2988 RMK AO1 PRESRR SLP188
SPECI CYNL 282024Z AUTO ///// 1 3/4SM VV011 M17/M22 A2988 RMK AO1 PRESRR SLP187
SPECI CYNL 282023Z AUTO ///// 1SM VV011 M17/M22 A2988 RMK AO1 PRESRR SLP187
SPECI CYNL 282020Z AUTO ///// 5/8SM VV012 M17/M22 A2987 RMK AO1 PRESRR SLP187
SPECI CYNL 282017Z AUTO ///// 1 1/4SM VV014 M17/M22 A2987 RMK AO1 PRESRR SLP186
SPECI CYNL 282015Z AUTO ///// 1 1/2SM VV014 M17/M22 A2987 RMK AO1 PRESRR SLP186
SPECI CYNL 282014Z AUTO ///// 1 1/4SM VV014 M17/M22 A2987 RMK AO1 PRESRR SLP185
SPECI CYNL 282013Z AUTO ///// 1 1/4SM FEW007 BKN018 M17/M22 A2987 RMK AO1 PRESRR SLP185
SPECI CYNL 282011Z AUTO ///// 1 3/4SM FEW007 SCT016 BKN020 M17/M23 A2987 RMK AO1 PRESRR SLP185
SPECI CYNL 282005Z AUTO ///// 4SM FEW007 BKN016 M17/M23 A2987 RMK AO1 PRESRR SLP184
METAR CYNL 282000Z AUTO ///// 6SM VV016 M17/M23 A2986 RMK AO1 PRESRR SLP183
SPECI CYNL 281955Z AUTO ///// 5SM VV015 M17/M23 A2986 RMK AO1 PRESRR SLP181
SPECI CYNL 281954Z AUTO ///// 4SM VV014 M17/M23 A2986 RMK AO1 PRESRR SLP181
SPECI CYNL 281950Z AUTO ///// 4SM FEW007 SCT015 BKN020 M17/M23 A2986 RMK AO1 PRESRR SLP179
SPECI CYNL 281949Z AUTO ///// 5SM VV010 M16/M23 A2985 RMK AO1 PRESRR SLP179
SPECI CYNL 281946Z AUTO ///// 3SM VV008 M16/M22 A2985 RMK AO1 PRESRR SLP178
SPECI CYNL 281944Z AUTO ///// 2SM VV012 M17/M22 A2985 RMK AO1 PRESRR SLP178
SPECI CYNL 281943Z AUTO ///// 2 1/2SM FEW011 BKN017 M17/M23 A2985 RMK AO1 PRESRR SLP177
SPECI CYNL 281933Z AUTO ///// 4SM SCT012 BKN018 M17/M23 A2984 RMK AO1 PRESRR SLP174
SPECI CYNL 281931Z AUTO ///// 2 1/2SM SCT012 BKN018 M16/M23 A2984 RMK AO1 PRESRR SLP173
SPECI CYNL 281930Z AUTO ///// 4SM SCT012 BKN027 M16/M23 A2983 RMK AO1 PRESRR SLP172
SPECI CYNL 281928Z AUTO ///// 6SM FEW012 SCT018 BKN210 M16/M23 A2983 RMK AO1 PRESRR SLP172
SPECI CYNL 281927Z AUTO ///// 5SM SCT012 BKN027 M17/M24 A2983 RMK AO1 PRESRR SLP172
SPECI CYNL 281926Z AUTO ///// 7SM FEW009 SCT013 BKN018 M17/M24 A2983 RMK AO1 PRESRR SLP172
SPECI CYNL 281923Z AUTO ///// 3SM VV015 M16/M22 A2983 RMK AO1 PRESRR SLP171
SPECI CYNL 281922Z AUTO ///// 2SM VV014 M16/M22 A2983 RMK AO1 PRESRR SLP170
SPECI CYNL 281920Z AUTO ///// 1 3/4SM VV013 M16/M22 A2983 RMK AO1 PRESRR SLP169
SPECI CYNL 281919Z AUTO ///// 2SM VV013 M16/M22 A2983 RMK AO1 PRESRR SLP169
SPECI CYNL 281918Z AUTO ///// 2 1/2SM FEW010 SCT014 BKN019 M16/M22 A2983 RMK AO1 PRESRR SLP169
SPECI CYNL 281917Z AUTO ///// 3SM FEW009 SCT014 BKN019 M16/M22 A2983 RMK AO1 PRESRR SLP168